<?xml version="1.0" encoding="UTF-8" standalone="no" ?>
<gpx xmlns="http://www.topografix.com/GPX/1/1" xmlns:xsi="http://www.w3.org/2001/XMLSchema-instance" xsi:schemaLocation="http://www.topografix.com/GPX/1/1 http://www.topografix.com/GPX/1/1/gpx.xsd" version="1.1" creator="VisuGPX - https://www.visugpx.com">
  <metadata>
    <name>GR5 : Ceillac - Maljasset</name>
    <desc><![CDATA[GR5 : étape Ceillac - Maljasset]]></desc>
  </metadata>
  <trk>
    <name><![CDATA[2013-08-08 07:48]]></name>
    <desc><![CDATA[<h1>OruxMaps</h1><br /><hr align="center" width="480" style="height: 2px; width: 517px"/><h2>Nom: 2013-08-08 07:48</h2><br /><p>Temps de départ: 08/08/2013 07:48</p><p>Temps d'arrivée: 08/08/2013 13:56</p><p>Distance: 12,8 km (06:07)</p><p>Temps déplacement: 04:26</p><p>Vitesse moyenne: 2,1 km/h</p><p>Vitesse moyenne: 2,9 km/h</p><p>Vitess Max.: 5,4 km/h</p><p>Altitude minimale: 1633 m</p><p>Altitude maximale: 2702 m</p><p>Vitesse d'élévation: 325,1 m/h</p><p>Vitesse de descente: -349,5 m/h</p><p>Gain Altitude: 1105 m</p><p>Perte Altitude: -859 m</p><p>Temps d'élévation: 03:23</p><p>Temps de descente: 02:27</p><hr align="center" width="480" style="height: 2px; width: 517px"/>]]></desc>
    <trkseg>
      <trkpt lat="44.66613" lon="6.77582">
        <ele>1651.34</ele>
        <time>2013-08-08T05:48:53Z</time>
      </trkpt>
      <trkpt lat="44.66595" lon="6.77582">
        <ele>1635.58</ele>
        <time>2013-08-08T05:56:52Z</time>
      </trkpt>
      <trkpt lat="44.6658" lon="6.77566">
        <ele>1635.04</ele>
        <time>2013-08-08T05:57:09Z</time>
      </trkpt>
      <trkpt lat="44.66565" lon="6.77549">
        <ele>1634.57</ele>
        <time>2013-08-08T05:57:24Z</time>
      </trkpt>
      <trkpt lat="44.66551" lon="6.77532">
        <ele>1633.66</ele>
        <time>2013-08-08T05:57:38Z</time>
      </trkpt>
      <trkpt lat="44.66536" lon="6.77518">
        <ele>1633.94</ele>
        <time>2013-08-08T05:57:53Z</time>
      </trkpt>
      <trkpt lat="44.6652" lon="6.77502">
        <ele>1634.53</ele>
        <time>2013-08-08T05:58:06Z</time>
      </trkpt>
      <trkpt lat="44.66505" lon="6.77515">
        <ele>1634.39</ele>
        <time>2013-08-08T05:58:20Z</time>
      </trkpt>
      <trkpt lat="44.66492" lon="6.77534">
        <ele>1634.31</ele>
        <time>2013-08-08T05:58:33Z</time>
      </trkpt>
      <trkpt lat="44.66479" lon="6.77552">
        <ele>1635.64</ele>
        <time>2013-08-08T05:58:49Z</time>
      </trkpt>
      <trkpt lat="44.66466" lon="6.77568">
        <ele>1638.66</ele>
        <time>2013-08-08T05:59:07Z</time>
      </trkpt>
      <trkpt lat="44.66452" lon="6.77551">
        <ele>1643.16</ele>
        <time>2013-08-08T05:59:22Z</time>
      </trkpt>
      <trkpt lat="44.66438" lon="6.77533">
        <ele>1649.18</ele>
        <time>2013-08-08T05:59:49Z</time>
      </trkpt>
      <trkpt lat="44.66423" lon="6.77548">
        <ele>1649.55</ele>
        <time>2013-08-08T06:00:41Z</time>
      </trkpt>
      <trkpt lat="44.6641" lon="6.77566">
        <ele>1648.9</ele>
        <time>2013-08-08T06:00:59Z</time>
      </trkpt>
      <trkpt lat="44.66395" lon="6.77582">
        <ele>1649.01</ele>
        <time>2013-08-08T06:01:22Z</time>
      </trkpt>
      <trkpt lat="44.66381" lon="6.77597">
        <ele>1649.75</ele>
        <time>2013-08-08T06:01:42Z</time>
      </trkpt>
      <trkpt lat="44.66369" lon="6.77618">
        <ele>1648.16</ele>
        <time>2013-08-08T06:02:02Z</time>
      </trkpt>
      <trkpt lat="44.66359" lon="6.7764">
        <ele>1649</ele>
        <time>2013-08-08T06:02:19Z</time>
      </trkpt>
      <trkpt lat="44.6635" lon="6.77663">
        <ele>1647.92</ele>
        <time>2013-08-08T06:02:34Z</time>
      </trkpt>
      <trkpt lat="44.6634" lon="6.77685">
        <ele>1647.25</ele>
        <time>2013-08-08T06:02:51Z</time>
      </trkpt>
      <trkpt lat="44.66335" lon="6.77711">
        <ele>1645.19</ele>
        <time>2013-08-08T06:03:08Z</time>
      </trkpt>
      <trkpt lat="44.66324" lon="6.77732">
        <ele>1645.02</ele>
        <time>2013-08-08T06:03:25Z</time>
      </trkpt>
      <trkpt lat="44.66311" lon="6.77751">
        <ele>1646.44</ele>
        <time>2013-08-08T06:03:44Z</time>
      </trkpt>
      <trkpt lat="44.66297" lon="6.77768">
        <ele>1648.59</ele>
        <time>2013-08-08T06:04:04Z</time>
      </trkpt>
      <trkpt lat="44.66285" lon="6.77787">
        <ele>1650.37</ele>
        <time>2013-08-08T06:04:30Z</time>
      </trkpt>
      <trkpt lat="44.66273" lon="6.77808">
        <ele>1651.04</ele>
        <time>2013-08-08T06:04:46Z</time>
      </trkpt>
      <trkpt lat="44.66257" lon="6.77822">
        <ele>1650.09</ele>
        <time>2013-08-08T06:05:03Z</time>
      </trkpt>
      <trkpt lat="44.66241" lon="6.77836">
        <ele>1650.57</ele>
        <time>2013-08-08T06:05:19Z</time>
      </trkpt>
      <trkpt lat="44.66227" lon="6.77852">
        <ele>1653.37</ele>
        <time>2013-08-08T06:05:40Z</time>
      </trkpt>
      <trkpt lat="44.66215" lon="6.77871">
        <ele>1654.22</ele>
        <time>2013-08-08T06:05:56Z</time>
      </trkpt>
      <trkpt lat="44.66204" lon="6.77893">
        <ele>1653.73</ele>
        <time>2013-08-08T06:06:13Z</time>
      </trkpt>
      <trkpt lat="44.66198" lon="6.77918">
        <ele>1654.3</ele>
        <time>2013-08-08T06:06:29Z</time>
      </trkpt>
      <trkpt lat="44.66182" lon="6.77932">
        <ele>1654.96</ele>
        <time>2013-08-08T06:06:45Z</time>
      </trkpt>
      <trkpt lat="44.66164" lon="6.7794">
        <ele>1653.64</ele>
        <time>2013-08-08T06:07:02Z</time>
      </trkpt>
      <trkpt lat="44.66149" lon="6.77956">
        <ele>1648.7</ele>
        <time>2013-08-08T06:07:18Z</time>
      </trkpt>
      <trkpt lat="44.66132" lon="6.77965">
        <ele>1646.06</ele>
        <time>2013-08-08T06:07:40Z</time>
      </trkpt>
      <trkpt lat="44.66123" lon="6.77986">
        <ele>1646.34</ele>
        <time>2013-08-08T06:07:58Z</time>
      </trkpt>
      <trkpt lat="44.66109" lon="6.78004">
        <ele>1649.02</ele>
        <time>2013-08-08T06:08:15Z</time>
      </trkpt>
      <trkpt lat="44.661" lon="6.78028">
        <ele>1651.07</ele>
        <time>2013-08-08T06:08:36Z</time>
      </trkpt>
      <trkpt lat="44.66095" lon="6.78052">
        <ele>1656.93</ele>
        <time>2013-08-08T06:08:52Z</time>
      </trkpt>
      <trkpt lat="44.66087" lon="6.78075">
        <ele>1657.63</ele>
        <time>2013-08-08T06:09:09Z</time>
      </trkpt>
      <trkpt lat="44.66071" lon="6.78088">
        <ele>1653.26</ele>
        <time>2013-08-08T06:13:53Z</time>
      </trkpt>
      <trkpt lat="44.66054" lon="6.78101">
        <ele>1654.98</ele>
        <time>2013-08-08T06:14:11Z</time>
      </trkpt>
      <trkpt lat="44.66043" lon="6.78121">
        <ele>1654.94</ele>
        <time>2013-08-08T06:14:37Z</time>
      </trkpt>
      <trkpt lat="44.6604" lon="6.78147">
        <ele>1656.06</ele>
        <time>2013-08-08T06:14:57Z</time>
      </trkpt>
      <trkpt lat="44.66034" lon="6.78171">
        <ele>1654.41</ele>
        <time>2013-08-08T06:15:19Z</time>
      </trkpt>
      <trkpt lat="44.66025" lon="6.78193">
        <ele>1654.02</ele>
        <time>2013-08-08T06:15:39Z</time>
      </trkpt>
      <trkpt lat="44.66012" lon="6.78213">
        <ele>1651.26</ele>
        <time>2013-08-08T06:16:00Z</time>
      </trkpt>
      <trkpt lat="44.65996" lon="6.78226">
        <ele>1652.35</ele>
        <time>2013-08-08T06:16:16Z</time>
      </trkpt>
      <trkpt lat="44.65977" lon="6.78233">
        <ele>1658.03</ele>
        <time>2013-08-08T06:16:33Z</time>
      </trkpt>
      <trkpt lat="44.6596" lon="6.7824">
        <ele>1656.1</ele>
        <time>2013-08-08T06:16:47Z</time>
      </trkpt>
      <trkpt lat="44.65943" lon="6.7825">
        <ele>1659.32</ele>
        <time>2013-08-08T06:17:02Z</time>
      </trkpt>
      <trkpt lat="44.65928" lon="6.78265">
        <ele>1657.93</ele>
        <time>2013-08-08T06:17:16Z</time>
      </trkpt>
      <trkpt lat="44.65917" lon="6.78286">
        <ele>1657.33</ele>
        <time>2013-08-08T06:17:31Z</time>
      </trkpt>
      <trkpt lat="44.65905" lon="6.78305">
        <ele>1657.98</ele>
        <time>2013-08-08T06:17:48Z</time>
      </trkpt>
      <trkpt lat="44.6589" lon="6.78324">
        <ele>1659.51</ele>
        <time>2013-08-08T06:18:06Z</time>
      </trkpt>
      <trkpt lat="44.65879" lon="6.78344">
        <ele>1659.57</ele>
        <time>2013-08-08T06:18:21Z</time>
      </trkpt>
      <trkpt lat="44.65869" lon="6.78365">
        <ele>1660.92</ele>
        <time>2013-08-08T06:18:37Z</time>
      </trkpt>
      <trkpt lat="44.65856" lon="6.78385">
        <ele>1660.46</ele>
        <time>2013-08-08T06:18:58Z</time>
      </trkpt>
      <trkpt lat="44.65845" lon="6.78405">
        <ele>1661.05</ele>
        <time>2013-08-08T06:19:13Z</time>
      </trkpt>
      <trkpt lat="44.65833" lon="6.78424">
        <ele>1660.87</ele>
        <time>2013-08-08T06:19:28Z</time>
      </trkpt>
      <trkpt lat="44.65821" lon="6.78444">
        <ele>1661.86</ele>
        <time>2013-08-08T06:19:44Z</time>
      </trkpt>
      <trkpt lat="44.65807" lon="6.78462">
        <ele>1662.61</ele>
        <time>2013-08-08T06:20:00Z</time>
      </trkpt>
      <trkpt lat="44.65792" lon="6.78477">
        <ele>1660.88</ele>
        <time>2013-08-08T06:20:15Z</time>
      </trkpt>
      <trkpt lat="44.65776" lon="6.78489">
        <ele>1661.25</ele>
        <time>2013-08-08T06:20:31Z</time>
      </trkpt>
      <trkpt lat="44.65758" lon="6.78497">
        <ele>1662.52</ele>
        <time>2013-08-08T06:20:48Z</time>
      </trkpt>
      <trkpt lat="44.65739" lon="6.78503">
        <ele>1665.56</ele>
        <time>2013-08-08T06:21:07Z</time>
      </trkpt>
      <trkpt lat="44.65722" lon="6.7851">
        <ele>1673.34</ele>
        <time>2013-08-08T06:21:28Z</time>
      </trkpt>
      <trkpt lat="44.65707" lon="6.78526">
        <ele>1674.52</ele>
        <time>2013-08-08T06:21:48Z</time>
      </trkpt>
      <trkpt lat="44.65697" lon="6.78547">
        <ele>1668.75</ele>
        <time>2013-08-08T06:22:05Z</time>
      </trkpt>
      <trkpt lat="44.65686" lon="6.78569">
        <ele>1663.83</ele>
        <time>2013-08-08T06:22:22Z</time>
      </trkpt>
      <trkpt lat="44.65671" lon="6.78584">
        <ele>1664.32</ele>
        <time>2013-08-08T06:22:39Z</time>
      </trkpt>
      <trkpt lat="44.65655" lon="6.78599">
        <ele>1668.3</ele>
        <time>2013-08-08T06:22:57Z</time>
      </trkpt>
      <trkpt lat="44.65642" lon="6.78618">
        <ele>1669.29</ele>
        <time>2013-08-08T06:23:14Z</time>
      </trkpt>
      <trkpt lat="44.65626" lon="6.78631">
        <ele>1669.22</ele>
        <time>2013-08-08T06:23:32Z</time>
      </trkpt>
      <trkpt lat="44.65609" lon="6.78642">
        <ele>1667.84</ele>
        <time>2013-08-08T06:23:50Z</time>
      </trkpt>
      <trkpt lat="44.65594" lon="6.78656">
        <ele>1671.49</ele>
        <time>2013-08-08T06:24:07Z</time>
      </trkpt>
      <trkpt lat="44.6558" lon="6.78674">
        <ele>1671.91</ele>
        <time>2013-08-08T06:24:24Z</time>
      </trkpt>
      <trkpt lat="44.65562" lon="6.78678">
        <ele>1670.91</ele>
        <time>2013-08-08T06:24:52Z</time>
      </trkpt>
      <trkpt lat="44.65544" lon="6.78685">
        <ele>1672.65</ele>
        <time>2013-08-08T06:25:18Z</time>
      </trkpt>
      <trkpt lat="44.65526" lon="6.78692">
        <ele>1674.58</ele>
        <time>2013-08-08T06:25:44Z</time>
      </trkpt>
      <trkpt lat="44.6551" lon="6.78704">
        <ele>1677.11</ele>
        <time>2013-08-08T06:26:11Z</time>
      </trkpt>
      <trkpt lat="44.65491" lon="6.78705">
        <ele>1678.42</ele>
        <time>2013-08-08T06:26:38Z</time>
      </trkpt>
      <trkpt lat="44.65473" lon="6.78704">
        <ele>1677.73</ele>
        <time>2013-08-08T06:27:07Z</time>
      </trkpt>
      <trkpt lat="44.65455" lon="6.78706">
        <ele>1682.16</ele>
        <time>2013-08-08T06:27:28Z</time>
      </trkpt>
      <trkpt lat="44.65436" lon="6.78705">
        <ele>1685.1</ele>
        <time>2013-08-08T06:27:58Z</time>
      </trkpt>
      <trkpt lat="44.65419" lon="6.78698">
        <ele>1687.62</ele>
        <time>2013-08-08T06:28:33Z</time>
      </trkpt>
      <trkpt lat="44.65401" lon="6.78698">
        <ele>1693.64</ele>
        <time>2013-08-08T06:28:58Z</time>
      </trkpt>
      <trkpt lat="44.65382" lon="6.78697">
        <ele>1695.05</ele>
        <time>2013-08-08T06:29:21Z</time>
      </trkpt>
      <trkpt lat="44.65363" lon="6.78694">
        <ele>1697.86</ele>
        <time>2013-08-08T06:29:39Z</time>
      </trkpt>
      <trkpt lat="44.65349" lon="6.78711">
        <ele>1710.56</ele>
        <time>2013-08-08T06:30:08Z</time>
      </trkpt>
      <trkpt lat="44.65335" lon="6.78728">
        <ele>1709.93</ele>
        <time>2013-08-08T06:30:34Z</time>
      </trkpt>
      <trkpt lat="44.6532" lon="6.78743">
        <ele>1702.88</ele>
        <time>2013-08-08T06:30:55Z</time>
      </trkpt>
      <trkpt lat="44.65306" lon="6.78759">
        <ele>1704.24</ele>
        <time>2013-08-08T06:31:17Z</time>
      </trkpt>
      <trkpt lat="44.65292" lon="6.78776">
        <ele>1703.38</ele>
        <time>2013-08-08T06:31:35Z</time>
      </trkpt>
      <trkpt lat="44.65279" lon="6.78795">
        <ele>1702.88</ele>
        <time>2013-08-08T06:31:52Z</time>
      </trkpt>
      <trkpt lat="44.65266" lon="6.78812">
        <ele>1701.11</ele>
        <time>2013-08-08T06:32:10Z</time>
      </trkpt>
      <trkpt lat="44.65252" lon="6.7883">
        <ele>1703.09</ele>
        <time>2013-08-08T06:32:31Z</time>
      </trkpt>
      <trkpt lat="44.65237" lon="6.78846">
        <ele>1703.05</ele>
        <time>2013-08-08T06:32:48Z</time>
      </trkpt>
      <trkpt lat="44.65226" lon="6.78867">
        <ele>1702.56</ele>
        <time>2013-08-08T06:33:13Z</time>
      </trkpt>
      <trkpt lat="44.65213" lon="6.78885">
        <ele>1701.88</ele>
        <time>2013-08-08T06:33:44Z</time>
      </trkpt>
      <trkpt lat="44.652" lon="6.78904">
        <ele>1701.66</ele>
        <time>2013-08-08T06:34:11Z</time>
      </trkpt>
      <trkpt lat="44.6519" lon="6.78924">
        <ele>1703.67</ele>
        <time>2013-08-08T06:34:48Z</time>
      </trkpt>
      <trkpt lat="44.65174" lon="6.78937">
        <ele>1699.18</ele>
        <time>2013-08-08T06:36:04Z</time>
      </trkpt>
      <trkpt lat="44.65159" lon="6.78953">
        <ele>1697.39</ele>
        <time>2013-08-08T06:36:22Z</time>
      </trkpt>
      <trkpt lat="44.65145" lon="6.7897">
        <ele>1695.92</ele>
        <time>2013-08-08T06:36:38Z</time>
      </trkpt>
      <trkpt lat="44.65128" lon="6.78979">
        <ele>1696.51</ele>
        <time>2013-08-08T06:37:02Z</time>
      </trkpt>
      <trkpt lat="44.6511" lon="6.78986">
        <ele>1693.83</ele>
        <time>2013-08-08T06:37:16Z</time>
      </trkpt>
      <trkpt lat="44.65093" lon="6.78997">
        <ele>1692.42</ele>
        <time>2013-08-08T06:37:32Z</time>
      </trkpt>
      <trkpt lat="44.65078" lon="6.79013">
        <ele>1691.52</ele>
        <time>2013-08-08T06:38:00Z</time>
      </trkpt>
      <trkpt lat="44.6506" lon="6.79004">
        <ele>1693.82</ele>
        <time>2013-08-08T06:38:21Z</time>
      </trkpt>
      <trkpt lat="44.65043" lon="6.78993">
        <ele>1697.87</ele>
        <time>2013-08-08T06:38:45Z</time>
      </trkpt>
      <trkpt lat="44.65025" lon="6.78992">
        <ele>1698.94</ele>
        <time>2013-08-08T06:39:09Z</time>
      </trkpt>
      <trkpt lat="44.65013" lon="6.79012">
        <ele>1701.45</ele>
        <time>2013-08-08T06:39:30Z</time>
      </trkpt>
      <trkpt lat="44.65014" lon="6.79039">
        <ele>1708.17</ele>
        <time>2013-08-08T06:39:51Z</time>
      </trkpt>
      <trkpt lat="44.65009" lon="6.79064">
        <ele>1701.73</ele>
        <time>2013-08-08T06:40:05Z</time>
      </trkpt>
      <trkpt lat="44.65007" lon="6.7909">
        <ele>1701.69</ele>
        <time>2013-08-08T06:40:21Z</time>
      </trkpt>
      <trkpt lat="44.64994" lon="6.79109">
        <ele>1699.44</ele>
        <time>2013-08-08T06:40:36Z</time>
      </trkpt>
      <trkpt lat="44.6498" lon="6.79123">
        <ele>1698.03</ele>
        <time>2013-08-08T06:40:52Z</time>
      </trkpt>
      <trkpt lat="44.64964" lon="6.79136">
        <ele>1697.17</ele>
        <time>2013-08-08T06:41:08Z</time>
      </trkpt>
      <trkpt lat="44.64948" lon="6.79148">
        <ele>1701.32</ele>
        <time>2013-08-08T06:41:25Z</time>
      </trkpt>
      <trkpt lat="44.64947" lon="6.79122">
        <ele>1699.13</ele>
        <time>2013-08-08T06:42:22Z</time>
      </trkpt>
      <trkpt lat="44.64953" lon="6.79099">
        <ele>1704.62</ele>
        <time>2013-08-08T06:43:03Z</time>
      </trkpt>
      <trkpt lat="44.64937" lon="6.79086">
        <ele>1714.24</ele>
        <time>2013-08-08T06:43:57Z</time>
      </trkpt>
      <trkpt lat="44.64935" lon="6.79061">
        <ele>1719.09</ele>
        <time>2013-08-08T06:44:56Z</time>
      </trkpt>
      <trkpt lat="44.64944" lon="6.79039">
        <ele>1725.82</ele>
        <time>2013-08-08T06:45:32Z</time>
      </trkpt>
      <trkpt lat="44.64951" lon="6.79015">
        <ele>1732.71</ele>
        <time>2013-08-08T06:46:12Z</time>
      </trkpt>
      <trkpt lat="44.64953" lon="6.78989">
        <ele>1733.1</ele>
        <time>2013-08-08T06:46:49Z</time>
      </trkpt>
      <trkpt lat="44.64957" lon="6.78965">
        <ele>1738.42</ele>
        <time>2013-08-08T06:47:23Z</time>
      </trkpt>
      <trkpt lat="44.64967" lon="6.78943">
        <ele>1743.15</ele>
        <time>2013-08-08T06:47:46Z</time>
      </trkpt>
      <trkpt lat="44.64978" lon="6.78922">
        <ele>1741.39</ele>
        <time>2013-08-08T06:48:07Z</time>
      </trkpt>
      <trkpt lat="44.64991" lon="6.78905">
        <ele>1750.18</ele>
        <time>2013-08-08T06:48:35Z</time>
      </trkpt>
      <trkpt lat="44.65004" lon="6.78886">
        <ele>1756.82</ele>
        <time>2013-08-08T06:49:08Z</time>
      </trkpt>
      <trkpt lat="44.65017" lon="6.78868">
        <ele>1757.23</ele>
        <time>2013-08-08T06:49:40Z</time>
      </trkpt>
      <trkpt lat="44.65031" lon="6.78853">
        <ele>1756.29</ele>
        <time>2013-08-08T06:50:16Z</time>
      </trkpt>
      <trkpt lat="44.65047" lon="6.7884">
        <ele>1761.01</ele>
        <time>2013-08-08T06:50:51Z</time>
      </trkpt>
      <trkpt lat="44.65065" lon="6.78834">
        <ele>1759.62</ele>
        <time>2013-08-08T06:51:16Z</time>
      </trkpt>
      <trkpt lat="44.65079" lon="6.78818">
        <ele>1769.77</ele>
        <time>2013-08-08T06:51:58Z</time>
      </trkpt>
      <trkpt lat="44.65088" lon="6.78796">
        <ele>1773.97</ele>
        <time>2013-08-08T06:52:38Z</time>
      </trkpt>
      <trkpt lat="44.65071" lon="6.78787">
        <ele>1782.65</ele>
        <time>2013-08-08T06:53:46Z</time>
      </trkpt>
      <trkpt lat="44.65078" lon="6.78763">
        <ele>1792.12</ele>
        <time>2013-08-08T06:55:00Z</time>
      </trkpt>
      <trkpt lat="44.65085" lon="6.78739">
        <ele>1796.27</ele>
        <time>2013-08-08T06:55:45Z</time>
      </trkpt>
      <trkpt lat="44.65069" lon="6.78728">
        <ele>1801.41</ele>
        <time>2013-08-08T06:56:53Z</time>
      </trkpt>
      <trkpt lat="44.65051" lon="6.78725">
        <ele>1806.64</ele>
        <time>2013-08-08T06:57:42Z</time>
      </trkpt>
      <trkpt lat="44.65057" lon="6.78701">
        <ele>1806.65</ele>
        <time>2013-08-08T06:58:52Z</time>
      </trkpt>
      <trkpt lat="44.65039" lon="6.78706">
        <ele>1823.47</ele>
        <time>2013-08-08T06:59:52Z</time>
      </trkpt>
      <trkpt lat="44.65021" lon="6.78705">
        <ele>1827.62</ele>
        <time>2013-08-08T07:00:17Z</time>
      </trkpt>
      <trkpt lat="44.65011" lon="6.78726">
        <ele>1828.82</ele>
        <time>2013-08-08T07:00:58Z</time>
      </trkpt>
      <trkpt lat="44.64995" lon="6.78739">
        <ele>1833.53</ele>
        <time>2013-08-08T07:01:33Z</time>
      </trkpt>
      <trkpt lat="44.6498" lon="6.78754">
        <ele>1842.65</ele>
        <time>2013-08-08T07:02:34Z</time>
      </trkpt>
      <trkpt lat="44.64966" lon="6.7877">
        <ele>1847.87</ele>
        <time>2013-08-08T07:03:26Z</time>
      </trkpt>
      <trkpt lat="44.64954" lon="6.7879">
        <ele>1856.04</ele>
        <time>2013-08-08T07:04:15Z</time>
      </trkpt>
      <trkpt lat="44.6494" lon="6.78805">
        <ele>1866.74</ele>
        <time>2013-08-08T07:05:04Z</time>
      </trkpt>
      <trkpt lat="44.64923" lon="6.78812">
        <ele>1868.08</ele>
        <time>2013-08-08T07:05:47Z</time>
      </trkpt>
      <trkpt lat="44.64905" lon="6.78804">
        <ele>1885.42</ele>
        <time>2013-08-08T07:07:12Z</time>
      </trkpt>
      <trkpt lat="44.64893" lon="6.78786">
        <ele>1892.9</ele>
        <time>2013-08-08T07:08:56Z</time>
      </trkpt>
      <trkpt lat="44.64877" lon="6.78772">
        <ele>1900.35</ele>
        <time>2013-08-08T07:10:16Z</time>
      </trkpt>
      <trkpt lat="44.64867" lon="6.78751">
        <ele>1916.42</ele>
        <time>2013-08-08T07:12:15Z</time>
      </trkpt>
      <trkpt lat="44.64852" lon="6.78766">
        <ele>1922.02</ele>
        <time>2013-08-08T07:12:58Z</time>
      </trkpt>
      <trkpt lat="44.64841" lon="6.78785">
        <ele>1931.95</ele>
        <time>2013-08-08T07:13:51Z</time>
      </trkpt>
      <trkpt lat="44.64823" lon="6.7878">
        <ele>1941.88</ele>
        <time>2013-08-08T07:14:59Z</time>
      </trkpt>
      <trkpt lat="44.64805" lon="6.78776">
        <ele>1940.92</ele>
        <time>2013-08-08T07:15:35Z</time>
      </trkpt>
      <trkpt lat="44.64787" lon="6.78776">
        <ele>1948.07</ele>
        <time>2013-08-08T07:16:13Z</time>
      </trkpt>
      <trkpt lat="44.64769" lon="6.78782">
        <ele>1953.32</ele>
        <time>2013-08-08T07:17:03Z</time>
      </trkpt>
      <trkpt lat="44.64751" lon="6.78789">
        <ele>1958.38</ele>
        <time>2013-08-08T07:17:53Z</time>
      </trkpt>
      <trkpt lat="44.64733" lon="6.78787">
        <ele>1964.89</ele>
        <time>2013-08-08T07:18:57Z</time>
      </trkpt>
      <trkpt lat="44.64715" lon="6.78788">
        <ele>1971.08</ele>
        <time>2013-08-08T07:19:37Z</time>
      </trkpt>
      <trkpt lat="44.64699" lon="6.78801">
        <ele>1976.66</ele>
        <time>2013-08-08T07:20:17Z</time>
      </trkpt>
      <trkpt lat="44.64682" lon="6.78807">
        <ele>1982.79</ele>
        <time>2013-08-08T07:21:20Z</time>
      </trkpt>
      <trkpt lat="44.64664" lon="6.78805">
        <ele>1989.32</ele>
        <time>2013-08-08T07:21:58Z</time>
      </trkpt>
      <trkpt lat="44.64646" lon="6.78799">
        <ele>1995.43</ele>
        <time>2013-08-08T07:22:33Z</time>
      </trkpt>
      <trkpt lat="44.64628" lon="6.78791">
        <ele>2008.59</ele>
        <time>2013-08-08T07:23:20Z</time>
      </trkpt>
      <trkpt lat="44.64611" lon="6.78797">
        <ele>2008.88</ele>
        <time>2013-08-08T07:24:01Z</time>
      </trkpt>
      <trkpt lat="44.64592" lon="6.78798">
        <ele>2018.28</ele>
        <time>2013-08-08T07:24:41Z</time>
      </trkpt>
      <trkpt lat="44.64574" lon="6.78798">
        <ele>2016.87</ele>
        <time>2013-08-08T07:25:09Z</time>
      </trkpt>
      <trkpt lat="44.64556" lon="6.78801">
        <ele>2019.99</ele>
        <time>2013-08-08T07:25:35Z</time>
      </trkpt>
      <trkpt lat="44.64538" lon="6.788">
        <ele>2022.98</ele>
        <time>2013-08-08T07:25:58Z</time>
      </trkpt>
      <trkpt lat="44.6452" lon="6.78803">
        <ele>2027.45</ele>
        <time>2013-08-08T07:26:27Z</time>
      </trkpt>
      <trkpt lat="44.64502" lon="6.78796">
        <ele>2032.26</ele>
        <time>2013-08-08T07:27:00Z</time>
      </trkpt>
      <trkpt lat="44.64487" lon="6.78782">
        <ele>2033.87</ele>
        <time>2013-08-08T07:27:19Z</time>
      </trkpt>
      <trkpt lat="44.64471" lon="6.7877">
        <ele>2034.35</ele>
        <time>2013-08-08T07:27:44Z</time>
      </trkpt>
      <trkpt lat="44.64454" lon="6.78763">
        <ele>2045.93</ele>
        <time>2013-08-08T07:28:29Z</time>
      </trkpt>
      <trkpt lat="44.64436" lon="6.78759">
        <ele>2053.15</ele>
        <time>2013-08-08T07:29:03Z</time>
      </trkpt>
      <trkpt lat="44.64418" lon="6.78754">
        <ele>2057.5</ele>
        <time>2013-08-08T07:29:52Z</time>
      </trkpt>
      <trkpt lat="44.644" lon="6.78762">
        <ele>2061.52</ele>
        <time>2013-08-08T07:30:24Z</time>
      </trkpt>
      <trkpt lat="44.64382" lon="6.78766">
        <ele>2066.62</ele>
        <time>2013-08-08T07:31:10Z</time>
      </trkpt>
      <trkpt lat="44.64368" lon="6.78783">
        <ele>2070.16</ele>
        <time>2013-08-08T07:31:32Z</time>
      </trkpt>
      <trkpt lat="44.64352" lon="6.78797">
        <ele>2067.42</ele>
        <time>2013-08-08T07:33:30Z</time>
      </trkpt>
      <trkpt lat="44.64336" lon="6.78808">
        <ele>2065.81</ele>
        <time>2013-08-08T07:33:50Z</time>
      </trkpt>
      <trkpt lat="44.64322" lon="6.78825">
        <ele>2072.05</ele>
        <time>2013-08-08T07:34:09Z</time>
      </trkpt>
      <trkpt lat="44.64306" lon="6.78839">
        <ele>2075.67</ele>
        <time>2013-08-08T07:34:30Z</time>
      </trkpt>
      <trkpt lat="44.64288" lon="6.78845">
        <ele>2084.52</ele>
        <time>2013-08-08T07:35:07Z</time>
      </trkpt>
      <trkpt lat="44.6427" lon="6.78842">
        <ele>2087.06</ele>
        <time>2013-08-08T07:38:05Z</time>
      </trkpt>
      <trkpt lat="44.64253" lon="6.78838">
        <ele>2085.98</ele>
        <time>2013-08-08T07:38:44Z</time>
      </trkpt>
      <trkpt lat="44.64235" lon="6.78845">
        <ele>2095.77</ele>
        <time>2013-08-08T07:39:21Z</time>
      </trkpt>
      <trkpt lat="44.64217" lon="6.78849">
        <ele>2105.11</ele>
        <time>2013-08-08T07:40:38Z</time>
      </trkpt>
      <trkpt lat="44.64198" lon="6.78851">
        <ele>2107.61</ele>
        <time>2013-08-08T07:41:11Z</time>
      </trkpt>
      <trkpt lat="44.64181" lon="6.78857">
        <ele>2112.77</ele>
        <time>2013-08-08T07:41:54Z</time>
      </trkpt>
      <trkpt lat="44.64171" lon="6.78835">
        <ele>2122.86</ele>
        <time>2013-08-08T07:43:07Z</time>
      </trkpt>
      <trkpt lat="44.64184" lon="6.78817">
        <ele>2125.15</ele>
        <time>2013-08-08T07:43:34Z</time>
      </trkpt>
      <trkpt lat="44.64199" lon="6.788">
        <ele>2124.81</ele>
        <time>2013-08-08T07:43:53Z</time>
      </trkpt>
      <trkpt lat="44.64181" lon="6.78796">
        <ele>2133.49</ele>
        <time>2013-08-08T07:45:12Z</time>
      </trkpt>
      <trkpt lat="44.64163" lon="6.78795">
        <ele>2139.25</ele>
        <time>2013-08-08T07:45:56Z</time>
      </trkpt>
      <trkpt lat="44.64145" lon="6.78802">
        <ele>2149.28</ele>
        <time>2013-08-08T07:46:23Z</time>
      </trkpt>
      <trkpt lat="44.64128" lon="6.7881">
        <ele>2154.58</ele>
        <time>2013-08-08T07:46:55Z</time>
      </trkpt>
      <trkpt lat="44.64117" lon="6.7883">
        <ele>2154.8</ele>
        <time>2013-08-08T07:47:45Z</time>
      </trkpt>
      <trkpt lat="44.64111" lon="6.78854">
        <ele>2160.81</ele>
        <time>2013-08-08T07:48:28Z</time>
      </trkpt>
      <trkpt lat="44.64096" lon="6.78868">
        <ele>2164.39</ele>
        <time>2013-08-08T07:48:54Z</time>
      </trkpt>
      <trkpt lat="44.64082" lon="6.78885">
        <ele>2170.09</ele>
        <time>2013-08-08T07:49:22Z</time>
      </trkpt>
      <trkpt lat="44.64065" lon="6.78897">
        <ele>2169.28</ele>
        <time>2013-08-08T07:49:48Z</time>
      </trkpt>
      <trkpt lat="44.64048" lon="6.78907">
        <ele>2172.16</ele>
        <time>2013-08-08T07:50:09Z</time>
      </trkpt>
      <trkpt lat="44.64032" lon="6.78919">
        <ele>2176.07</ele>
        <time>2013-08-08T07:50:34Z</time>
      </trkpt>
      <trkpt lat="44.64016" lon="6.78933">
        <ele>2176</ele>
        <time>2013-08-08T07:50:52Z</time>
      </trkpt>
      <trkpt lat="44.63999" lon="6.7894">
        <ele>2175.96</ele>
        <time>2013-08-08T07:51:10Z</time>
      </trkpt>
      <trkpt lat="44.63983" lon="6.78953">
        <ele>2176.07</ele>
        <time>2013-08-08T07:51:31Z</time>
      </trkpt>
      <trkpt lat="44.63971" lon="6.78973">
        <ele>2177.17</ele>
        <time>2013-08-08T07:52:08Z</time>
      </trkpt>
      <trkpt lat="44.63957" lon="6.78989">
        <ele>2184.55</ele>
        <time>2013-08-08T07:52:45Z</time>
      </trkpt>
      <trkpt lat="44.63944" lon="6.79007">
        <ele>2188.59</ele>
        <time>2013-08-08T07:53:07Z</time>
      </trkpt>
      <trkpt lat="44.63935" lon="6.7903">
        <ele>2185.79</ele>
        <time>2013-08-08T07:53:25Z</time>
      </trkpt>
      <trkpt lat="44.63932" lon="6.79055">
        <ele>2197.28</ele>
        <time>2013-08-08T07:54:08Z</time>
      </trkpt>
      <trkpt lat="44.63913" lon="6.79058">
        <ele>2198.99</ele>
        <time>2013-08-08T07:54:45Z</time>
      </trkpt>
      <trkpt lat="44.63895" lon="6.79059">
        <ele>2199.17</ele>
        <time>2013-08-08T07:55:12Z</time>
      </trkpt>
      <trkpt lat="44.63877" lon="6.79065">
        <ele>2207.03</ele>
        <time>2013-08-08T07:56:00Z</time>
      </trkpt>
      <trkpt lat="44.63861" lon="6.79075">
        <ele>2210.72</ele>
        <time>2013-08-08T07:56:24Z</time>
      </trkpt>
      <trkpt lat="44.63842" lon="6.79073">
        <ele>2208.24</ele>
        <time>2013-08-08T07:56:47Z</time>
      </trkpt>
      <trkpt lat="44.63824" lon="6.7907">
        <ele>2210.81</ele>
        <time>2013-08-08T07:57:06Z</time>
      </trkpt>
      <trkpt lat="44.63806" lon="6.79073">
        <ele>2208.36</ele>
        <time>2013-08-08T07:58:55Z</time>
      </trkpt>
      <trkpt lat="44.63789" lon="6.79081">
        <ele>2206.33</ele>
        <time>2013-08-08T07:59:10Z</time>
      </trkpt>
      <trkpt lat="44.63772" lon="6.7909">
        <ele>2205.82</ele>
        <time>2013-08-08T07:59:25Z</time>
      </trkpt>
      <trkpt lat="44.63748" lon="6.791">
        <ele>2206.18</ele>
        <time>2013-08-08T07:59:49Z</time>
      </trkpt>
      <trkpt lat="44.6373" lon="6.79096">
        <ele>2202.25</ele>
        <time>2013-08-08T08:00:10Z</time>
      </trkpt>
      <trkpt lat="44.63712" lon="6.79094">
        <ele>2206.87</ele>
        <time>2013-08-08T08:00:33Z</time>
      </trkpt>
      <trkpt lat="44.63693" lon="6.7909">
        <ele>2207.81</ele>
        <time>2013-08-08T08:00:53Z</time>
      </trkpt>
      <trkpt lat="44.63676" lon="6.79099">
        <ele>2211.04</ele>
        <time>2013-08-08T08:01:12Z</time>
      </trkpt>
      <trkpt lat="44.63658" lon="6.79106">
        <ele>2212.76</ele>
        <time>2013-08-08T08:01:33Z</time>
      </trkpt>
      <trkpt lat="44.63641" lon="6.79113">
        <ele>2218.06</ele>
        <time>2013-08-08T08:01:58Z</time>
      </trkpt>
      <trkpt lat="44.63623" lon="6.79114">
        <ele>2220.45</ele>
        <time>2013-08-08T08:02:21Z</time>
      </trkpt>
      <trkpt lat="44.63605" lon="6.79119">
        <ele>2220.52</ele>
        <time>2013-08-08T08:02:40Z</time>
      </trkpt>
      <trkpt lat="44.63588" lon="6.79128">
        <ele>2222.64</ele>
        <time>2013-08-08T08:03:01Z</time>
      </trkpt>
      <trkpt lat="44.63571" lon="6.79141">
        <ele>2222.94</ele>
        <time>2013-08-08T08:03:21Z</time>
      </trkpt>
      <trkpt lat="44.63555" lon="6.79154">
        <ele>2221.28</ele>
        <time>2013-08-08T08:03:39Z</time>
      </trkpt>
      <trkpt lat="44.63542" lon="6.79172">
        <ele>2221.24</ele>
        <time>2013-08-08T08:03:59Z</time>
      </trkpt>
      <trkpt lat="44.63524" lon="6.79178">
        <ele>2222.62</ele>
        <time>2013-08-08T08:04:20Z</time>
      </trkpt>
      <trkpt lat="44.63507" lon="6.79191">
        <ele>2221.94</ele>
        <time>2013-08-08T08:04:39Z</time>
      </trkpt>
      <trkpt lat="44.6349" lon="6.792">
        <ele>2221.73</ele>
        <time>2013-08-08T08:04:59Z</time>
      </trkpt>
      <trkpt lat="44.63472" lon="6.79205">
        <ele>2223.26</ele>
        <time>2013-08-08T08:05:19Z</time>
      </trkpt>
      <trkpt lat="44.63455" lon="6.79214">
        <ele>2221.12</ele>
        <time>2013-08-08T08:05:37Z</time>
      </trkpt>
      <trkpt lat="44.63439" lon="6.79227">
        <ele>2219.44</ele>
        <time>2013-08-08T08:05:53Z</time>
      </trkpt>
      <trkpt lat="44.63424" lon="6.7924">
        <ele>2219.02</ele>
        <time>2013-08-08T08:06:14Z</time>
      </trkpt>
      <trkpt lat="44.63407" lon="6.79252">
        <ele>2217.52</ele>
        <time>2013-08-08T08:06:45Z</time>
      </trkpt>
      <trkpt lat="44.63392" lon="6.79267">
        <ele>2216.44</ele>
        <time>2013-08-08T08:07:04Z</time>
      </trkpt>
      <trkpt lat="44.63376" lon="6.7928">
        <ele>2215.68</ele>
        <time>2013-08-08T08:07:25Z</time>
      </trkpt>
      <trkpt lat="44.63358" lon="6.79289">
        <ele>2217.28</ele>
        <time>2013-08-08T08:07:43Z</time>
      </trkpt>
      <trkpt lat="44.63342" lon="6.79301">
        <ele>2217.9</ele>
        <time>2013-08-08T08:08:00Z</time>
      </trkpt>
      <trkpt lat="44.63324" lon="6.79302">
        <ele>2218.32</ele>
        <time>2013-08-08T08:08:32Z</time>
      </trkpt>
      <trkpt lat="44.63308" lon="6.79316">
        <ele>2219.23</ele>
        <time>2013-08-08T08:08:51Z</time>
      </trkpt>
      <trkpt lat="44.63293" lon="6.79332">
        <ele>2221.96</ele>
        <time>2013-08-08T08:09:11Z</time>
      </trkpt>
      <trkpt lat="44.63285" lon="6.79355">
        <ele>2224.4</ele>
        <time>2013-08-08T08:09:34Z</time>
      </trkpt>
      <trkpt lat="44.63268" lon="6.79366">
        <ele>2228.36</ele>
        <time>2013-08-08T08:10:32Z</time>
      </trkpt>
      <trkpt lat="44.63253" lon="6.79382">
        <ele>2224.8</ele>
        <time>2013-08-08T08:10:49Z</time>
      </trkpt>
      <trkpt lat="44.63235" lon="6.79389">
        <ele>2227.19</ele>
        <time>2013-08-08T08:11:13Z</time>
      </trkpt>
      <trkpt lat="44.63217" lon="6.79391">
        <ele>2230.06</ele>
        <time>2013-08-08T08:11:45Z</time>
      </trkpt>
      <trkpt lat="44.632" lon="6.79402">
        <ele>2232.68</ele>
        <time>2013-08-08T08:12:06Z</time>
      </trkpt>
      <trkpt lat="44.63182" lon="6.7941">
        <ele>2240.48</ele>
        <time>2013-08-08T08:12:33Z</time>
      </trkpt>
      <trkpt lat="44.63168" lon="6.79427">
        <ele>2241.47</ele>
        <time>2013-08-08T08:12:56Z</time>
      </trkpt>
      <trkpt lat="44.63156" lon="6.79447">
        <ele>2241.53</ele>
        <time>2013-08-08T08:13:35Z</time>
      </trkpt>
      <trkpt lat="44.63147" lon="6.7947">
        <ele>2241.8</ele>
        <time>2013-08-08T08:13:57Z</time>
      </trkpt>
      <trkpt lat="44.6314" lon="6.79494">
        <ele>2241.88</ele>
        <time>2013-08-08T08:14:26Z</time>
      </trkpt>
      <trkpt lat="44.63126" lon="6.79511">
        <ele>2244.41</ele>
        <time>2013-08-08T08:14:47Z</time>
      </trkpt>
      <trkpt lat="44.6311" lon="6.79524">
        <ele>2244.43</ele>
        <time>2013-08-08T08:15:12Z</time>
      </trkpt>
      <trkpt lat="44.63097" lon="6.79543">
        <ele>2245.53</ele>
        <time>2013-08-08T08:15:35Z</time>
      </trkpt>
      <trkpt lat="44.63082" lon="6.79558">
        <ele>2247.68</ele>
        <time>2013-08-08T08:15:54Z</time>
      </trkpt>
      <trkpt lat="44.63064" lon="6.79563">
        <ele>2248.47</ele>
        <time>2013-08-08T08:16:15Z</time>
      </trkpt>
      <trkpt lat="44.63047" lon="6.79574">
        <ele>2250.97</ele>
        <time>2013-08-08T08:16:32Z</time>
      </trkpt>
      <trkpt lat="44.63033" lon="6.79589">
        <ele>2255.17</ele>
        <time>2013-08-08T08:17:04Z</time>
      </trkpt>
      <trkpt lat="44.63019" lon="6.79605">
        <ele>2256.27</ele>
        <time>2013-08-08T08:17:25Z</time>
      </trkpt>
      <trkpt lat="44.63004" lon="6.79621">
        <ele>2255.32</ele>
        <time>2013-08-08T08:17:49Z</time>
      </trkpt>
      <trkpt lat="44.62993" lon="6.79641">
        <ele>2257.19</ele>
        <time>2013-08-08T08:18:07Z</time>
      </trkpt>
      <trkpt lat="44.62979" lon="6.79657">
        <ele>2259.99</ele>
        <time>2013-08-08T08:18:39Z</time>
      </trkpt>
      <trkpt lat="44.62965" lon="6.79675">
        <ele>2259.59</ele>
        <time>2013-08-08T08:19:00Z</time>
      </trkpt>
      <trkpt lat="44.62952" lon="6.79693">
        <ele>2258.47</ele>
        <time>2013-08-08T08:19:22Z</time>
      </trkpt>
      <trkpt lat="44.62935" lon="6.79704">
        <ele>2261.55</ele>
        <time>2013-08-08T08:19:57Z</time>
      </trkpt>
      <trkpt lat="44.62925" lon="6.79726">
        <ele>2261.57</ele>
        <time>2013-08-08T08:20:16Z</time>
      </trkpt>
      <trkpt lat="44.62911" lon="6.79741">
        <ele>2259.55</ele>
        <time>2013-08-08T08:20:41Z</time>
      </trkpt>
      <trkpt lat="44.62895" lon="6.79753">
        <ele>2263.72</ele>
        <time>2013-08-08T08:28:15Z</time>
      </trkpt>
      <trkpt lat="44.62882" lon="6.79771">
        <ele>2265.13</ele>
        <time>2013-08-08T08:28:40Z</time>
      </trkpt>
      <trkpt lat="44.62872" lon="6.79794">
        <ele>2268.5</ele>
        <time>2013-08-08T08:29:25Z</time>
      </trkpt>
      <trkpt lat="44.62859" lon="6.79811">
        <ele>2268.53</ele>
        <time>2013-08-08T08:30:00Z</time>
      </trkpt>
      <trkpt lat="44.62847" lon="6.7983">
        <ele>2266.88</ele>
        <time>2013-08-08T08:30:21Z</time>
      </trkpt>
      <trkpt lat="44.62836" lon="6.79851">
        <ele>2263.39</ele>
        <time>2013-08-08T08:31:10Z</time>
      </trkpt>
      <trkpt lat="44.62823" lon="6.79869">
        <ele>2261.99</ele>
        <time>2013-08-08T08:31:38Z</time>
      </trkpt>
      <trkpt lat="44.62808" lon="6.79883">
        <ele>2266.07</ele>
        <time>2013-08-08T08:32:20Z</time>
      </trkpt>
      <trkpt lat="44.62793" lon="6.79897">
        <ele>2270.26</ele>
        <time>2013-08-08T08:32:55Z</time>
      </trkpt>
      <trkpt lat="44.62786" lon="6.79921">
        <ele>2278.78</ele>
        <time>2013-08-08T08:33:45Z</time>
      </trkpt>
      <trkpt lat="44.62793" lon="6.79944">
        <ele>2278.83</ele>
        <time>2013-08-08T08:34:22Z</time>
      </trkpt>
      <trkpt lat="44.62796" lon="6.79969">
        <ele>2279.27</ele>
        <time>2013-08-08T08:34:43Z</time>
      </trkpt>
      <trkpt lat="44.62801" lon="6.79994">
        <ele>2279.34</ele>
        <time>2013-08-08T08:35:03Z</time>
      </trkpt>
      <trkpt lat="44.62804" lon="6.8002">
        <ele>2279.83</ele>
        <time>2013-08-08T08:35:23Z</time>
      </trkpt>
      <trkpt lat="44.6281" lon="6.80044">
        <ele>2280.18</ele>
        <time>2013-08-08T08:35:45Z</time>
      </trkpt>
      <trkpt lat="44.62816" lon="6.80068">
        <ele>2279.83</ele>
        <time>2013-08-08T08:36:04Z</time>
      </trkpt>
      <trkpt lat="44.6282" lon="6.80093">
        <ele>2279.94</ele>
        <time>2013-08-08T08:36:23Z</time>
      </trkpt>
      <trkpt lat="44.62818" lon="6.80118">
        <ele>2284.29</ele>
        <time>2013-08-08T08:36:58Z</time>
      </trkpt>
      <trkpt lat="44.62808" lon="6.80141">
        <ele>2288.29</ele>
        <time>2013-08-08T08:37:40Z</time>
      </trkpt>
      <trkpt lat="44.62798" lon="6.80161">
        <ele>2292.55</ele>
        <time>2013-08-08T08:38:04Z</time>
      </trkpt>
      <trkpt lat="44.62783" lon="6.80177">
        <ele>2293.08</ele>
        <time>2013-08-08T08:38:26Z</time>
      </trkpt>
      <trkpt lat="44.62767" lon="6.8019">
        <ele>2297.85</ele>
        <time>2013-08-08T08:38:53Z</time>
      </trkpt>
      <trkpt lat="44.6275" lon="6.80201">
        <ele>2300.51</ele>
        <time>2013-08-08T08:39:26Z</time>
      </trkpt>
      <trkpt lat="44.62735" lon="6.80216">
        <ele>2302.96</ele>
        <time>2013-08-08T08:39:46Z</time>
      </trkpt>
      <trkpt lat="44.62724" lon="6.80236">
        <ele>2305.82</ele>
        <time>2013-08-08T08:40:11Z</time>
      </trkpt>
      <trkpt lat="44.62712" lon="6.80255">
        <ele>2311.3</ele>
        <time>2013-08-08T08:40:39Z</time>
      </trkpt>
      <trkpt lat="44.62705" lon="6.80279">
        <ele>2312.4</ele>
        <time>2013-08-08T08:41:04Z</time>
      </trkpt>
      <trkpt lat="44.62702" lon="6.80305">
        <ele>2317.67</ele>
        <time>2013-08-08T08:41:33Z</time>
      </trkpt>
      <trkpt lat="44.62697" lon="6.8033">
        <ele>2318.83</ele>
        <time>2013-08-08T08:42:00Z</time>
      </trkpt>
      <trkpt lat="44.62692" lon="6.80354">
        <ele>2321</ele>
        <time>2013-08-08T08:42:23Z</time>
      </trkpt>
      <trkpt lat="44.62684" lon="6.80377">
        <ele>2322.8</ele>
        <time>2013-08-08T08:42:46Z</time>
      </trkpt>
      <trkpt lat="44.62691" lon="6.80402">
        <ele>2326.29</ele>
        <time>2013-08-08T08:43:14Z</time>
      </trkpt>
      <trkpt lat="44.62697" lon="6.80426">
        <ele>2327.8</ele>
        <time>2013-08-08T08:43:44Z</time>
      </trkpt>
      <trkpt lat="44.62713" lon="6.80437">
        <ele>2324.9</ele>
        <time>2013-08-08T08:44:11Z</time>
      </trkpt>
      <trkpt lat="44.62714" lon="6.80462">
        <ele>2331.14</ele>
        <time>2013-08-08T08:44:42Z</time>
      </trkpt>
      <trkpt lat="44.62703" lon="6.80483">
        <ele>2334.55</ele>
        <time>2013-08-08T08:45:18Z</time>
      </trkpt>
      <trkpt lat="44.62691" lon="6.80502">
        <ele>2336.56</ele>
        <time>2013-08-08T08:45:43Z</time>
      </trkpt>
      <trkpt lat="44.62677" lon="6.80519">
        <ele>2339.14</ele>
        <time>2013-08-08T08:46:12Z</time>
      </trkpt>
      <trkpt lat="44.62661" lon="6.8053">
        <ele>2341.56</ele>
        <time>2013-08-08T08:46:38Z</time>
      </trkpt>
      <trkpt lat="44.62643" lon="6.80535">
        <ele>2345.68</ele>
        <time>2013-08-08T08:47:10Z</time>
      </trkpt>
      <trkpt lat="44.62625" lon="6.80535">
        <ele>2348.95</ele>
        <time>2013-08-08T08:47:39Z</time>
      </trkpt>
      <trkpt lat="44.62612" lon="6.80554">
        <ele>2352.63</ele>
        <time>2013-08-08T08:48:07Z</time>
      </trkpt>
      <trkpt lat="44.626" lon="6.80572">
        <ele>2361.63</ele>
        <time>2013-08-08T08:48:44Z</time>
      </trkpt>
      <trkpt lat="44.62586" lon="6.80589">
        <ele>2365.92</ele>
        <time>2013-08-08T08:49:19Z</time>
      </trkpt>
      <trkpt lat="44.62572" lon="6.80605">
        <ele>2368.29</ele>
        <time>2013-08-08T08:49:47Z</time>
      </trkpt>
      <trkpt lat="44.62558" lon="6.80621">
        <ele>2370.48</ele>
        <time>2013-08-08T08:50:08Z</time>
      </trkpt>
      <trkpt lat="44.62545" lon="6.80639">
        <ele>2372.54</ele>
        <time>2013-08-08T08:50:32Z</time>
      </trkpt>
      <trkpt lat="44.62542" lon="6.80665">
        <ele>2374.67</ele>
        <time>2013-08-08T08:51:08Z</time>
      </trkpt>
      <trkpt lat="44.62529" lon="6.80684">
        <ele>2378.81</ele>
        <time>2013-08-08T08:51:31Z</time>
      </trkpt>
      <trkpt lat="44.62517" lon="6.80704">
        <ele>2379.84</ele>
        <time>2013-08-08T08:51:56Z</time>
      </trkpt>
      <trkpt lat="44.62505" lon="6.80723">
        <ele>2383.17</ele>
        <time>2013-08-08T08:52:28Z</time>
      </trkpt>
      <trkpt lat="44.62493" lon="6.80742">
        <ele>2388.64</ele>
        <time>2013-08-08T08:52:57Z</time>
      </trkpt>
      <trkpt lat="44.62478" lon="6.80757">
        <ele>2392.41</ele>
        <time>2013-08-08T08:53:33Z</time>
      </trkpt>
      <trkpt lat="44.6246" lon="6.80764">
        <ele>2393.95</ele>
        <time>2013-08-08T08:54:06Z</time>
      </trkpt>
      <trkpt lat="44.62446" lon="6.8078">
        <ele>2400.22</ele>
        <time>2013-08-08T08:54:47Z</time>
      </trkpt>
      <trkpt lat="44.62431" lon="6.80795">
        <ele>2406.54</ele>
        <time>2013-08-08T08:55:35Z</time>
      </trkpt>
      <trkpt lat="44.62416" lon="6.80809">
        <ele>2412.98</ele>
        <time>2013-08-08T08:56:22Z</time>
      </trkpt>
      <trkpt lat="44.62412" lon="6.80834">
        <ele>2414.78</ele>
        <time>2013-08-08T08:56:51Z</time>
      </trkpt>
      <trkpt lat="44.6241" lon="6.8086">
        <ele>2413.06</ele>
        <time>2013-08-08T08:57:09Z</time>
      </trkpt>
      <trkpt lat="44.62404" lon="6.80885">
        <ele>2412.22</ele>
        <time>2013-08-08T08:57:27Z</time>
      </trkpt>
      <trkpt lat="44.62392" lon="6.80905">
        <ele>2411.22</ele>
        <time>2013-08-08T08:57:44Z</time>
      </trkpt>
      <trkpt lat="44.62379" lon="6.80923">
        <ele>2404.14</ele>
        <time>2013-08-08T09:01:01Z</time>
      </trkpt>
      <trkpt lat="44.62368" lon="6.80943">
        <ele>2405.92</ele>
        <time>2013-08-08T09:01:21Z</time>
      </trkpt>
      <trkpt lat="44.62354" lon="6.80958">
        <ele>2408.67</ele>
        <time>2013-08-08T09:01:45Z</time>
      </trkpt>
      <trkpt lat="44.62335" lon="6.8096">
        <ele>2407.86</ele>
        <time>2013-08-08T09:03:02Z</time>
      </trkpt>
      <trkpt lat="44.62317" lon="6.80965">
        <ele>2408.95</ele>
        <time>2013-08-08T09:03:19Z</time>
      </trkpt>
      <trkpt lat="44.623" lon="6.80973">
        <ele>2409.6</ele>
        <time>2013-08-08T09:03:36Z</time>
      </trkpt>
      <trkpt lat="44.62282" lon="6.80979">
        <ele>2409.92</ele>
        <time>2013-08-08T09:03:52Z</time>
      </trkpt>
      <trkpt lat="44.62266" lon="6.80994">
        <ele>2409.45</ele>
        <time>2013-08-08T09:04:10Z</time>
      </trkpt>
      <trkpt lat="44.6225" lon="6.81006">
        <ele>2408.98</ele>
        <time>2013-08-08T09:04:25Z</time>
      </trkpt>
      <trkpt lat="44.62237" lon="6.81022">
        <ele>2407.54</ele>
        <time>2013-08-08T09:04:42Z</time>
      </trkpt>
      <trkpt lat="44.62227" lon="6.81045">
        <ele>2408.83</ele>
        <time>2013-08-08T09:04:58Z</time>
      </trkpt>
      <trkpt lat="44.62215" lon="6.81065">
        <ele>2409.54</ele>
        <time>2013-08-08T09:05:14Z</time>
      </trkpt>
      <trkpt lat="44.62199" lon="6.81077">
        <ele>2410.82</ele>
        <time>2013-08-08T09:05:30Z</time>
      </trkpt>
      <trkpt lat="44.62181" lon="6.81079">
        <ele>2406.4</ele>
        <time>2013-08-08T09:05:48Z</time>
      </trkpt>
      <trkpt lat="44.62163" lon="6.8107">
        <ele>2401.59</ele>
        <time>2013-08-08T09:06:05Z</time>
      </trkpt>
      <trkpt lat="44.62148" lon="6.81056">
        <ele>2397.87</ele>
        <time>2013-08-08T09:06:22Z</time>
      </trkpt>
      <trkpt lat="44.6213" lon="6.81058">
        <ele>2398.25</ele>
        <time>2013-08-08T09:06:41Z</time>
      </trkpt>
      <trkpt lat="44.62113" lon="6.8107">
        <ele>2401.68</ele>
        <time>2013-08-08T09:07:01Z</time>
      </trkpt>
      <trkpt lat="44.62098" lon="6.81085">
        <ele>2400.87</ele>
        <time>2013-08-08T09:07:27Z</time>
      </trkpt>
      <trkpt lat="44.62085" lon="6.81104">
        <ele>2400.4</ele>
        <time>2013-08-08T09:07:42Z</time>
      </trkpt>
      <trkpt lat="44.62067" lon="6.81111">
        <ele>2400.44</ele>
        <time>2013-08-08T09:07:58Z</time>
      </trkpt>
      <trkpt lat="44.6205" lon="6.8112">
        <ele>2401.02</ele>
        <time>2013-08-08T09:08:13Z</time>
      </trkpt>
      <trkpt lat="44.62031" lon="6.81126">
        <ele>2399.29</ele>
        <time>2013-08-08T09:08:30Z</time>
      </trkpt>
      <trkpt lat="44.62018" lon="6.81144">
        <ele>2402.7</ele>
        <time>2013-08-08T09:08:58Z</time>
      </trkpt>
      <trkpt lat="44.62001" lon="6.81156">
        <ele>2408.53</ele>
        <time>2013-08-08T09:09:21Z</time>
      </trkpt>
      <trkpt lat="44.61983" lon="6.81161">
        <ele>2404.89</ele>
        <time>2013-08-08T09:09:39Z</time>
      </trkpt>
      <trkpt lat="44.61965" lon="6.8117">
        <ele>2409.09</ele>
        <time>2013-08-08T09:09:56Z</time>
      </trkpt>
      <trkpt lat="44.61948" lon="6.81179">
        <ele>2410.59</ele>
        <time>2013-08-08T09:10:16Z</time>
      </trkpt>
      <trkpt lat="44.61931" lon="6.81191">
        <ele>2414.02</ele>
        <time>2013-08-08T09:10:33Z</time>
      </trkpt>
      <trkpt lat="44.61918" lon="6.81209">
        <ele>2415.5</ele>
        <time>2013-08-08T09:11:31Z</time>
      </trkpt>
      <trkpt lat="44.61906" lon="6.81228">
        <ele>2413.36</ele>
        <time>2013-08-08T09:41:37Z</time>
      </trkpt>
      <trkpt lat="44.61898" lon="6.81252">
        <ele>2408.69</ele>
        <time>2013-08-08T09:42:00Z</time>
      </trkpt>
      <trkpt lat="44.61884" lon="6.81269">
        <ele>2410.7</ele>
        <time>2013-08-08T09:42:15Z</time>
      </trkpt>
      <trkpt lat="44.61872" lon="6.81288">
        <ele>2412.27</ele>
        <time>2013-08-08T09:42:29Z</time>
      </trkpt>
      <trkpt lat="44.61865" lon="6.81311">
        <ele>2412.19</ele>
        <time>2013-08-08T09:42:48Z</time>
      </trkpt>
      <trkpt lat="44.61859" lon="6.81336">
        <ele>2415.3</ele>
        <time>2013-08-08T09:43:04Z</time>
      </trkpt>
      <trkpt lat="44.61849" lon="6.81358">
        <ele>2416.2</ele>
        <time>2013-08-08T09:43:24Z</time>
      </trkpt>
      <trkpt lat="44.61831" lon="6.81361">
        <ele>2426.99</ele>
        <time>2013-08-08T09:44:13Z</time>
      </trkpt>
      <trkpt lat="44.61813" lon="6.81356">
        <ele>2428.77</ele>
        <time>2013-08-08T09:44:43Z</time>
      </trkpt>
      <trkpt lat="44.61795" lon="6.81355">
        <ele>2431.93</ele>
        <time>2013-08-08T09:45:09Z</time>
      </trkpt>
      <trkpt lat="44.61777" lon="6.81358">
        <ele>2435.42</ele>
        <time>2013-08-08T09:45:43Z</time>
      </trkpt>
      <trkpt lat="44.61758" lon="6.8136">
        <ele>2441.98</ele>
        <time>2013-08-08T09:46:23Z</time>
      </trkpt>
      <trkpt lat="44.61759" lon="6.81385">
        <ele>2450.63</ele>
        <time>2013-08-08T09:47:25Z</time>
      </trkpt>
      <trkpt lat="44.61742" lon="6.81397">
        <ele>2458.77</ele>
        <time>2013-08-08T09:48:17Z</time>
      </trkpt>
      <trkpt lat="44.61723" lon="6.81398">
        <ele>2460.75</ele>
        <time>2013-08-08T09:48:55Z</time>
      </trkpt>
      <trkpt lat="44.61725" lon="6.81423">
        <ele>2467.06</ele>
        <time>2013-08-08T09:51:41Z</time>
      </trkpt>
      <trkpt lat="44.61708" lon="6.81435">
        <ele>2470.57</ele>
        <time>2013-08-08T09:52:06Z</time>
      </trkpt>
      <trkpt lat="44.61694" lon="6.81451">
        <ele>2474.79</ele>
        <time>2013-08-08T09:52:41Z</time>
      </trkpt>
      <trkpt lat="44.61679" lon="6.81464">
        <ele>2479.89</ele>
        <time>2013-08-08T09:53:17Z</time>
      </trkpt>
      <trkpt lat="44.61662" lon="6.81474">
        <ele>2479.71</ele>
        <time>2013-08-08T09:53:42Z</time>
      </trkpt>
      <trkpt lat="44.61657" lon="6.81499">
        <ele>2483.94</ele>
        <time>2013-08-08T09:54:03Z</time>
      </trkpt>
      <trkpt lat="44.61641" lon="6.81512">
        <ele>2489.14</ele>
        <time>2013-08-08T09:54:26Z</time>
      </trkpt>
      <trkpt lat="44.61626" lon="6.81527">
        <ele>2489.69</ele>
        <time>2013-08-08T09:54:46Z</time>
      </trkpt>
      <trkpt lat="44.6161" lon="6.81539">
        <ele>2491.51</ele>
        <time>2013-08-08T09:55:06Z</time>
      </trkpt>
      <trkpt lat="44.61593" lon="6.81552">
        <ele>2489.99</ele>
        <time>2013-08-08T09:55:28Z</time>
      </trkpt>
      <trkpt lat="44.61577" lon="6.81563">
        <ele>2489.87</ele>
        <time>2013-08-08T09:55:46Z</time>
      </trkpt>
      <trkpt lat="44.61559" lon="6.81571">
        <ele>2492.16</ele>
        <time>2013-08-08T09:56:05Z</time>
      </trkpt>
      <trkpt lat="44.61542" lon="6.81579">
        <ele>2494.25</ele>
        <time>2013-08-08T09:56:24Z</time>
      </trkpt>
      <trkpt lat="44.61526" lon="6.81591">
        <ele>2494.43</ele>
        <time>2013-08-08T09:56:42Z</time>
      </trkpt>
      <trkpt lat="44.61512" lon="6.81608">
        <ele>2495.24</ele>
        <time>2013-08-08T09:57:00Z</time>
      </trkpt>
      <trkpt lat="44.61499" lon="6.81626">
        <ele>2495.36</ele>
        <time>2013-08-08T09:57:17Z</time>
      </trkpt>
      <trkpt lat="44.61486" lon="6.81644">
        <ele>2494.56</ele>
        <time>2013-08-08T09:57:37Z</time>
      </trkpt>
      <trkpt lat="44.61473" lon="6.81662">
        <ele>2499.89</ele>
        <time>2013-08-08T09:57:57Z</time>
      </trkpt>
      <trkpt lat="44.6146" lon="6.81681">
        <ele>2501.38</ele>
        <time>2013-08-08T09:58:14Z</time>
      </trkpt>
      <trkpt lat="44.61446" lon="6.81697">
        <ele>2507.54</ele>
        <time>2013-08-08T09:58:39Z</time>
      </trkpt>
      <trkpt lat="44.61431" lon="6.81711">
        <ele>2506.52</ele>
        <time>2013-08-08T09:59:04Z</time>
      </trkpt>
      <trkpt lat="44.61418" lon="6.81728">
        <ele>2508.42</ele>
        <time>2013-08-08T09:59:28Z</time>
      </trkpt>
      <trkpt lat="44.61402" lon="6.81742">
        <ele>2506.54</ele>
        <time>2013-08-08T09:59:49Z</time>
      </trkpt>
      <trkpt lat="44.61388" lon="6.81758">
        <ele>2513.39</ele>
        <time>2013-08-08T10:00:12Z</time>
      </trkpt>
      <trkpt lat="44.61382" lon="6.81783">
        <ele>2512.71</ele>
        <time>2013-08-08T10:00:34Z</time>
      </trkpt>
      <trkpt lat="44.61379" lon="6.81808">
        <ele>2513.86</ele>
        <time>2013-08-08T10:00:57Z</time>
      </trkpt>
      <trkpt lat="44.6137" lon="6.8183">
        <ele>2521.58</ele>
        <time>2013-08-08T10:01:22Z</time>
      </trkpt>
      <trkpt lat="44.61355" lon="6.81847">
        <ele>2529.33</ele>
        <time>2013-08-08T10:02:00Z</time>
      </trkpt>
      <trkpt lat="44.61347" lon="6.8187">
        <ele>2532.41</ele>
        <time>2013-08-08T10:02:32Z</time>
      </trkpt>
      <trkpt lat="44.61339" lon="6.81893">
        <ele>2529.67</ele>
        <time>2013-08-08T10:03:04Z</time>
      </trkpt>
      <trkpt lat="44.6133" lon="6.81916">
        <ele>2530</ele>
        <time>2013-08-08T10:03:23Z</time>
      </trkpt>
      <trkpt lat="44.61327" lon="6.81942">
        <ele>2532.86</ele>
        <time>2013-08-08T10:03:52Z</time>
      </trkpt>
      <trkpt lat="44.61324" lon="6.81967">
        <ele>2533</ele>
        <time>2013-08-08T10:04:13Z</time>
      </trkpt>
      <trkpt lat="44.61311" lon="6.81986">
        <ele>2534.3</ele>
        <time>2013-08-08T10:04:35Z</time>
      </trkpt>
      <trkpt lat="44.61295" lon="6.81998">
        <ele>2536.6</ele>
        <time>2013-08-08T10:04:58Z</time>
      </trkpt>
      <trkpt lat="44.61282" lon="6.82017">
        <ele>2537.99</ele>
        <time>2013-08-08T10:05:17Z</time>
      </trkpt>
      <trkpt lat="44.61265" lon="6.82026">
        <ele>2543.6</ele>
        <time>2013-08-08T10:05:43Z</time>
      </trkpt>
      <trkpt lat="44.6125" lon="6.8204">
        <ele>2544.55</ele>
        <time>2013-08-08T10:06:05Z</time>
      </trkpt>
      <trkpt lat="44.61236" lon="6.82057">
        <ele>2544.19</ele>
        <time>2013-08-08T10:06:23Z</time>
      </trkpt>
      <trkpt lat="44.6122" lon="6.8207">
        <ele>2542.59</ele>
        <time>2013-08-08T10:06:40Z</time>
      </trkpt>
      <trkpt lat="44.61204" lon="6.82084">
        <ele>2543.83</ele>
        <time>2013-08-08T10:06:58Z</time>
      </trkpt>
      <trkpt lat="44.61188" lon="6.82097">
        <ele>2543.89</ele>
        <time>2013-08-08T10:07:21Z</time>
      </trkpt>
      <trkpt lat="44.61177" lon="6.82118">
        <ele>2541.88</ele>
        <time>2013-08-08T10:07:45Z</time>
      </trkpt>
      <trkpt lat="44.61161" lon="6.82134">
        <ele>2546.54</ele>
        <time>2013-08-08T10:08:06Z</time>
      </trkpt>
      <trkpt lat="44.6115" lon="6.82155">
        <ele>2550.41</ele>
        <time>2013-08-08T10:08:27Z</time>
      </trkpt>
      <trkpt lat="44.61139" lon="6.82176">
        <ele>2554.91</ele>
        <time>2013-08-08T10:08:51Z</time>
      </trkpt>
      <trkpt lat="44.61128" lon="6.82196">
        <ele>2558.53</ele>
        <time>2013-08-08T10:09:16Z</time>
      </trkpt>
      <trkpt lat="44.61114" lon="6.82214">
        <ele>2566.77</ele>
        <time>2013-08-08T10:09:46Z</time>
      </trkpt>
      <trkpt lat="44.611" lon="6.82229">
        <ele>2570.12</ele>
        <time>2013-08-08T10:10:26Z</time>
      </trkpt>
      <trkpt lat="44.61082" lon="6.82233">
        <ele>2584.67</ele>
        <time>2013-08-08T10:11:06Z</time>
      </trkpt>
      <trkpt lat="44.61069" lon="6.8225">
        <ele>2582.84</ele>
        <time>2013-08-08T10:12:09Z</time>
      </trkpt>
      <trkpt lat="44.61051" lon="6.82256">
        <ele>2590.16</ele>
        <time>2013-08-08T10:13:26Z</time>
      </trkpt>
      <trkpt lat="44.61035" lon="6.82245">
        <ele>2594.91</ele>
        <time>2013-08-08T10:14:04Z</time>
      </trkpt>
      <trkpt lat="44.61019" lon="6.82231">
        <ele>2596.54</ele>
        <time>2013-08-08T10:14:26Z</time>
      </trkpt>
      <trkpt lat="44.61001" lon="6.82228">
        <ele>2603.29</ele>
        <time>2013-08-08T10:15:21Z</time>
      </trkpt>
      <trkpt lat="44.60983" lon="6.82233">
        <ele>2611.59</ele>
        <time>2013-08-08T10:16:41Z</time>
      </trkpt>
      <trkpt lat="44.6097" lon="6.82214">
        <ele>2619.82</ele>
        <time>2013-08-08T10:17:20Z</time>
      </trkpt>
      <trkpt lat="44.60959" lon="6.82192">
        <ele>2624.8</ele>
        <time>2013-08-08T10:17:48Z</time>
      </trkpt>
      <trkpt lat="44.60948" lon="6.82173">
        <ele>2627.17</ele>
        <time>2013-08-08T10:18:09Z</time>
      </trkpt>
      <trkpt lat="44.60948" lon="6.82198">
        <ele>2628.34</ele>
        <time>2013-08-08T10:18:49Z</time>
      </trkpt>
      <trkpt lat="44.60945" lon="6.82223">
        <ele>2634.01</ele>
        <time>2013-08-08T10:19:19Z</time>
      </trkpt>
      <trkpt lat="44.60931" lon="6.82206">
        <ele>2644.08</ele>
        <time>2013-08-08T10:20:38Z</time>
      </trkpt>
      <trkpt lat="44.60919" lon="6.82186">
        <ele>2651.83</ele>
        <time>2013-08-08T10:21:07Z</time>
      </trkpt>
      <trkpt lat="44.60908" lon="6.82166">
        <ele>2650.44</ele>
        <time>2013-08-08T10:21:31Z</time>
      </trkpt>
      <trkpt lat="44.60909" lon="6.82191">
        <ele>2657.73</ele>
        <time>2013-08-08T10:22:09Z</time>
      </trkpt>
      <trkpt lat="44.60914" lon="6.82216">
        <ele>2658.85</ele>
        <time>2013-08-08T10:22:33Z</time>
      </trkpt>
      <trkpt lat="44.60903" lon="6.82195">
        <ele>2663.65</ele>
        <time>2013-08-08T10:23:04Z</time>
      </trkpt>
      <trkpt lat="44.60889" lon="6.82178">
        <ele>2664.03</ele>
        <time>2013-08-08T10:23:26Z</time>
      </trkpt>
      <trkpt lat="44.60873" lon="6.82165">
        <ele>2668.03</ele>
        <time>2013-08-08T10:23:53Z</time>
      </trkpt>
      <trkpt lat="44.60857" lon="6.82153">
        <ele>2676.84</ele>
        <time>2013-08-08T10:24:36Z</time>
      </trkpt>
      <trkpt lat="44.60842" lon="6.82138">
        <ele>2684.97</ele>
        <time>2013-08-08T10:25:21Z</time>
      </trkpt>
      <trkpt lat="44.60827" lon="6.82125">
        <ele>2686.78</ele>
        <time>2013-08-08T10:25:55Z</time>
      </trkpt>
      <trkpt lat="44.60809" lon="6.82118">
        <ele>2691.75</ele>
        <time>2013-08-08T10:26:27Z</time>
      </trkpt>
      <trkpt lat="44.60791" lon="6.82111">
        <ele>2698.23</ele>
        <time>2013-08-08T10:27:30Z</time>
      </trkpt>
      <trkpt lat="44.60773" lon="6.82109">
        <ele>2702.1</ele>
        <time>2013-08-08T10:28:01Z</time>
      </trkpt>
      <trkpt lat="44.60755" lon="6.82107">
        <ele>2699.79</ele>
        <time>2013-08-08T10:30:31Z</time>
      </trkpt>
      <trkpt lat="44.60737" lon="6.82102">
        <ele>2697.32</ele>
        <time>2013-08-08T10:30:47Z</time>
      </trkpt>
      <trkpt lat="44.60718" lon="6.821">
        <ele>2693.06</ele>
        <time>2013-08-08T10:31:27Z</time>
      </trkpt>
      <trkpt lat="44.607" lon="6.82104">
        <ele>2681.52</ele>
        <time>2013-08-08T10:32:16Z</time>
      </trkpt>
      <trkpt lat="44.60709" lon="6.82126">
        <ele>2668.11</ele>
        <time>2013-08-08T10:32:54Z</time>
      </trkpt>
      <trkpt lat="44.60694" lon="6.82142">
        <ele>2663.91</ele>
        <time>2013-08-08T10:33:42Z</time>
      </trkpt>
      <trkpt lat="44.60684" lon="6.82162">
        <ele>2647.26</ele>
        <time>2013-08-08T10:35:02Z</time>
      </trkpt>
      <trkpt lat="44.60667" lon="6.82152">
        <ele>2644.93</ele>
        <time>2013-08-08T10:35:20Z</time>
      </trkpt>
      <trkpt lat="44.60679" lon="6.82173">
        <ele>2646.79</ele>
        <time>2013-08-08T10:35:35Z</time>
      </trkpt>
      <trkpt lat="44.60661" lon="6.82176">
        <ele>2632.04</ele>
        <time>2013-08-08T10:36:11Z</time>
      </trkpt>
      <trkpt lat="44.60672" lon="6.82197">
        <ele>2628.55</ele>
        <time>2013-08-08T10:36:51Z</time>
      </trkpt>
      <trkpt lat="44.6068" lon="6.8222">
        <ele>2627.96</ele>
        <time>2013-08-08T10:37:11Z</time>
      </trkpt>
      <trkpt lat="44.60683" lon="6.82246">
        <ele>2624.85</ele>
        <time>2013-08-08T10:37:28Z</time>
      </trkpt>
      <trkpt lat="44.60665" lon="6.82251">
        <ele>2618.85</ele>
        <time>2013-08-08T10:38:59Z</time>
      </trkpt>
      <trkpt lat="44.60647" lon="6.82248">
        <ele>2609.63</ele>
        <time>2013-08-08T10:39:22Z</time>
      </trkpt>
      <trkpt lat="44.6063" lon="6.82259">
        <ele>2598.88</ele>
        <time>2013-08-08T10:39:41Z</time>
      </trkpt>
      <trkpt lat="44.60612" lon="6.82261">
        <ele>2594.66</ele>
        <time>2013-08-08T10:39:59Z</time>
      </trkpt>
      <trkpt lat="44.60601" lon="6.82241">
        <ele>2594.5</ele>
        <time>2013-08-08T10:41:10Z</time>
      </trkpt>
      <trkpt lat="44.60586" lon="6.82226">
        <ele>2592.47</ele>
        <time>2013-08-08T10:41:41Z</time>
      </trkpt>
      <trkpt lat="44.60568" lon="6.82229">
        <ele>2591.58</ele>
        <time>2013-08-08T10:42:06Z</time>
      </trkpt>
      <trkpt lat="44.60557" lon="6.8225">
        <ele>2578.36</ele>
        <time>2013-08-08T10:43:02Z</time>
      </trkpt>
      <trkpt lat="44.60546" lon="6.82271">
        <ele>2571.53</ele>
        <time>2013-08-08T10:43:35Z</time>
      </trkpt>
      <trkpt lat="44.60532" lon="6.82288">
        <ele>2571.93</ele>
        <time>2013-08-08T10:44:37Z</time>
      </trkpt>
      <trkpt lat="44.60514" lon="6.82287">
        <ele>2560.69</ele>
        <time>2013-08-08T10:45:52Z</time>
      </trkpt>
      <trkpt lat="44.60496" lon="6.82287">
        <ele>2569.03</ele>
        <time>2013-08-08T10:47:02Z</time>
      </trkpt>
      <trkpt lat="44.60502" lon="6.82311">
        <ele>2567.65</ele>
        <time>2013-08-08T10:47:50Z</time>
      </trkpt>
      <trkpt lat="44.6051" lon="6.82334">
        <ele>2562.37</ele>
        <time>2013-08-08T10:48:56Z</time>
      </trkpt>
      <trkpt lat="44.60516" lon="6.82358">
        <ele>2556.13</ele>
        <time>2013-08-08T10:49:26Z</time>
      </trkpt>
      <trkpt lat="44.60519" lon="6.82383">
        <ele>2558.23</ele>
        <time>2013-08-08T10:49:50Z</time>
      </trkpt>
      <trkpt lat="44.6052" lon="6.8241">
        <ele>2553.36</ele>
        <time>2013-08-08T10:50:14Z</time>
      </trkpt>
      <trkpt lat="44.60518" lon="6.82435">
        <ele>2553.43</ele>
        <time>2013-08-08T10:50:30Z</time>
      </trkpt>
      <trkpt lat="44.60517" lon="6.82461">
        <ele>2553.75</ele>
        <time>2013-08-08T10:50:49Z</time>
      </trkpt>
      <trkpt lat="44.60512" lon="6.82486">
        <ele>2555.65</ele>
        <time>2013-08-08T10:51:05Z</time>
      </trkpt>
      <trkpt lat="44.60508" lon="6.82512">
        <ele>2552.07</ele>
        <time>2013-08-08T10:51:24Z</time>
      </trkpt>
      <trkpt lat="44.60493" lon="6.82528">
        <ele>2552.07</ele>
        <time>2013-08-08T10:51:45Z</time>
      </trkpt>
      <trkpt lat="44.60492" lon="6.82553">
        <ele>2547.83</ele>
        <time>2013-08-08T10:52:45Z</time>
      </trkpt>
      <trkpt lat="44.60504" lon="6.82573">
        <ele>2542.94</ele>
        <time>2013-08-08T10:53:09Z</time>
      </trkpt>
      <trkpt lat="44.60498" lon="6.82599">
        <ele>2530.59</ele>
        <time>2013-08-08T10:54:00Z</time>
      </trkpt>
      <trkpt lat="44.60487" lon="6.82618">
        <ele>2524.8</ele>
        <time>2013-08-08T10:54:18Z</time>
      </trkpt>
      <trkpt lat="44.60475" lon="6.82638">
        <ele>2518.73</ele>
        <time>2013-08-08T10:54:37Z</time>
      </trkpt>
      <trkpt lat="44.60459" lon="6.8265">
        <ele>2516.23</ele>
        <time>2013-08-08T10:54:54Z</time>
      </trkpt>
      <trkpt lat="44.60443" lon="6.82661">
        <ele>2513.08</ele>
        <time>2013-08-08T10:55:10Z</time>
      </trkpt>
      <trkpt lat="44.60428" lon="6.82677">
        <ele>2508.48</ele>
        <time>2013-08-08T10:55:27Z</time>
      </trkpt>
      <trkpt lat="44.60414" lon="6.82694">
        <ele>2507.41</ele>
        <time>2013-08-08T10:55:42Z</time>
      </trkpt>
      <trkpt lat="44.60402" lon="6.82714">
        <ele>2507.05</ele>
        <time>2013-08-08T10:55:57Z</time>
      </trkpt>
      <trkpt lat="44.6039" lon="6.82735">
        <ele>2506.32</ele>
        <time>2013-08-08T10:56:12Z</time>
      </trkpt>
      <trkpt lat="44.6038" lon="6.82757">
        <ele>2501.51</ele>
        <time>2013-08-08T10:56:41Z</time>
      </trkpt>
      <trkpt lat="44.60368" lon="6.82776">
        <ele>2498.01</ele>
        <time>2013-08-08T10:56:57Z</time>
      </trkpt>
      <trkpt lat="44.60353" lon="6.82792">
        <ele>2496.7</ele>
        <time>2013-08-08T10:57:14Z</time>
      </trkpt>
      <trkpt lat="44.60336" lon="6.828">
        <ele>2492.74</ele>
        <time>2013-08-08T10:57:28Z</time>
      </trkpt>
      <trkpt lat="44.60318" lon="6.82809">
        <ele>2489.88</ele>
        <time>2013-08-08T10:57:53Z</time>
      </trkpt>
      <trkpt lat="44.60301" lon="6.82817">
        <ele>2484.09</ele>
        <time>2013-08-08T10:58:20Z</time>
      </trkpt>
      <trkpt lat="44.60284" lon="6.82827">
        <ele>2480.13</ele>
        <time>2013-08-08T10:58:37Z</time>
      </trkpt>
      <trkpt lat="44.60265" lon="6.82833">
        <ele>2480.18</ele>
        <time>2013-08-08T10:58:51Z</time>
      </trkpt>
      <trkpt lat="44.60247" lon="6.82837">
        <ele>2479.94</ele>
        <time>2013-08-08T10:59:08Z</time>
      </trkpt>
      <trkpt lat="44.6023" lon="6.82826">
        <ele>2471.76</ele>
        <time>2013-08-08T10:59:30Z</time>
      </trkpt>
      <trkpt lat="44.60212" lon="6.82822">
        <ele>2463.54</ele>
        <time>2013-08-08T10:59:47Z</time>
      </trkpt>
      <trkpt lat="44.60198" lon="6.82807">
        <ele>2464.08</ele>
        <time>2013-08-08T11:00:03Z</time>
      </trkpt>
      <trkpt lat="44.6018" lon="6.82804">
        <ele>2454.88</ele>
        <time>2013-08-08T11:00:19Z</time>
      </trkpt>
      <trkpt lat="44.60162" lon="6.82815">
        <ele>2451.15</ele>
        <time>2013-08-08T11:00:34Z</time>
      </trkpt>
      <trkpt lat="44.6015" lon="6.82835">
        <ele>2450.15</ele>
        <time>2013-08-08T11:04:59Z</time>
      </trkpt>
      <trkpt lat="44.60136" lon="6.82851">
        <ele>2449.39</ele>
        <time>2013-08-08T11:05:16Z</time>
      </trkpt>
      <trkpt lat="44.6012" lon="6.82865">
        <ele>2451.26</ele>
        <time>2013-08-08T11:05:35Z</time>
      </trkpt>
      <trkpt lat="44.60103" lon="6.82873">
        <ele>2446.01</ele>
        <time>2013-08-08T11:05:51Z</time>
      </trkpt>
      <trkpt lat="44.60089" lon="6.8289">
        <ele>2443.66</ele>
        <time>2013-08-08T11:06:12Z</time>
      </trkpt>
      <trkpt lat="44.60071" lon="6.82897">
        <ele>2446.13</ele>
        <time>2013-08-08T11:06:30Z</time>
      </trkpt>
      <trkpt lat="44.60056" lon="6.82913">
        <ele>2445.79</ele>
        <time>2013-08-08T11:06:46Z</time>
      </trkpt>
      <trkpt lat="44.60044" lon="6.82933">
        <ele>2443.53</ele>
        <time>2013-08-08T11:07:06Z</time>
      </trkpt>
      <trkpt lat="44.60032" lon="6.82953">
        <ele>2440.71</ele>
        <time>2013-08-08T11:07:30Z</time>
      </trkpt>
      <trkpt lat="44.60022" lon="6.82974">
        <ele>2439.43</ele>
        <time>2013-08-08T11:07:47Z</time>
      </trkpt>
      <trkpt lat="44.60009" lon="6.82993">
        <ele>2429.13</ele>
        <time>2013-08-08T11:08:07Z</time>
      </trkpt>
      <trkpt lat="44.6" lon="6.83015">
        <ele>2430.5</ele>
        <time>2013-08-08T11:08:25Z</time>
      </trkpt>
      <trkpt lat="44.59988" lon="6.83035">
        <ele>2430.94</ele>
        <time>2013-08-08T11:08:41Z</time>
      </trkpt>
      <trkpt lat="44.5998" lon="6.83058">
        <ele>2430.28</ele>
        <time>2013-08-08T11:08:56Z</time>
      </trkpt>
      <trkpt lat="44.59974" lon="6.83082">
        <ele>2425.36</ele>
        <time>2013-08-08T11:09:13Z</time>
      </trkpt>
      <trkpt lat="44.59963" lon="6.83103">
        <ele>2424.67</ele>
        <time>2013-08-08T11:09:35Z</time>
      </trkpt>
      <trkpt lat="44.59945" lon="6.8311">
        <ele>2420.5</ele>
        <time>2013-08-08T11:09:53Z</time>
      </trkpt>
      <trkpt lat="44.59934" lon="6.8313">
        <ele>2415.2</ele>
        <time>2013-08-08T11:10:29Z</time>
      </trkpt>
      <trkpt lat="44.59919" lon="6.83146">
        <ele>2405.95</ele>
        <time>2013-08-08T11:10:49Z</time>
      </trkpt>
      <trkpt lat="44.59905" lon="6.83162">
        <ele>2404.94</ele>
        <time>2013-08-08T11:11:11Z</time>
      </trkpt>
      <trkpt lat="44.59888" lon="6.83173">
        <ele>2400.9</ele>
        <time>2013-08-08T11:11:30Z</time>
      </trkpt>
      <trkpt lat="44.5987" lon="6.83178">
        <ele>2394.96</ele>
        <time>2013-08-08T11:11:51Z</time>
      </trkpt>
      <trkpt lat="44.59863" lon="6.83155">
        <ele>2385.91</ele>
        <time>2013-08-08T11:12:19Z</time>
      </trkpt>
      <trkpt lat="44.59857" lon="6.83131">
        <ele>2381.72</ele>
        <time>2013-08-08T11:12:37Z</time>
      </trkpt>
      <trkpt lat="44.59847" lon="6.8311">
        <ele>2374.82</ele>
        <time>2013-08-08T11:13:40Z</time>
      </trkpt>
      <trkpt lat="44.59828" lon="6.83113">
        <ele>2368.77</ele>
        <time>2013-08-08T11:13:57Z</time>
      </trkpt>
      <trkpt lat="44.59813" lon="6.83128">
        <ele>2365.89</ele>
        <time>2013-08-08T11:14:29Z</time>
      </trkpt>
      <trkpt lat="44.59798" lon="6.83143">
        <ele>2362.42</ele>
        <time>2013-08-08T11:14:45Z</time>
      </trkpt>
      <trkpt lat="44.59783" lon="6.83159">
        <ele>2360.56</ele>
        <time>2013-08-08T11:15:02Z</time>
      </trkpt>
      <trkpt lat="44.5977" lon="6.83178">
        <ele>2359.62</ele>
        <time>2013-08-08T11:15:28Z</time>
      </trkpt>
      <trkpt lat="44.59757" lon="6.83196">
        <ele>2358.3</ele>
        <time>2013-08-08T11:15:48Z</time>
      </trkpt>
      <trkpt lat="44.59762" lon="6.83221">
        <ele>2354</ele>
        <time>2013-08-08T11:16:12Z</time>
      </trkpt>
      <trkpt lat="44.59766" lon="6.83246">
        <ele>2347.42</ele>
        <time>2013-08-08T11:16:35Z</time>
      </trkpt>
      <trkpt lat="44.59761" lon="6.83271">
        <ele>2343.51</ele>
        <time>2013-08-08T11:16:52Z</time>
      </trkpt>
      <trkpt lat="44.59749" lon="6.83291">
        <ele>2340.73</ele>
        <time>2013-08-08T11:17:23Z</time>
      </trkpt>
      <trkpt lat="44.59745" lon="6.83317">
        <ele>2337.75</ele>
        <time>2013-08-08T11:18:26Z</time>
      </trkpt>
      <trkpt lat="44.59755" lon="6.83338">
        <ele>2329.97</ele>
        <time>2013-08-08T11:18:43Z</time>
      </trkpt>
      <trkpt lat="44.59768" lon="6.83356">
        <ele>2327.3</ele>
        <time>2013-08-08T11:18:59Z</time>
      </trkpt>
      <trkpt lat="44.59763" lon="6.83381">
        <ele>2323.57</ele>
        <time>2013-08-08T11:19:36Z</time>
      </trkpt>
      <trkpt lat="44.59747" lon="6.83393">
        <ele>2319.36</ele>
        <time>2013-08-08T11:19:58Z</time>
      </trkpt>
      <trkpt lat="44.59729" lon="6.83398">
        <ele>2311.46</ele>
        <time>2013-08-08T11:20:19Z</time>
      </trkpt>
      <trkpt lat="44.59711" lon="6.83408">
        <ele>2306.74</ele>
        <time>2013-08-08T11:20:41Z</time>
      </trkpt>
      <trkpt lat="44.59693" lon="6.83412">
        <ele>2298.18</ele>
        <time>2013-08-08T11:21:18Z</time>
      </trkpt>
      <trkpt lat="44.59675" lon="6.83418">
        <ele>2292.04</ele>
        <time>2013-08-08T11:21:44Z</time>
      </trkpt>
      <trkpt lat="44.5966" lon="6.83433">
        <ele>2282.33</ele>
        <time>2013-08-08T11:23:15Z</time>
      </trkpt>
      <trkpt lat="44.59659" lon="6.83458">
        <ele>2272.44</ele>
        <time>2013-08-08T11:23:52Z</time>
      </trkpt>
      <trkpt lat="44.59656" lon="6.83484">
        <ele>2271.03</ele>
        <time>2013-08-08T11:24:40Z</time>
      </trkpt>
      <trkpt lat="44.59653" lon="6.83509">
        <ele>2265.1</ele>
        <time>2013-08-08T11:25:03Z</time>
      </trkpt>
      <trkpt lat="44.59641" lon="6.83491">
        <ele>2258.06</ele>
        <time>2013-08-08T11:25:31Z</time>
      </trkpt>
      <trkpt lat="44.59622" lon="6.8349">
        <ele>2243.27</ele>
        <time>2013-08-08T11:26:18Z</time>
      </trkpt>
      <trkpt lat="44.59616" lon="6.83514">
        <ele>2236.95</ele>
        <time>2013-08-08T11:27:07Z</time>
      </trkpt>
      <trkpt lat="44.59599" lon="6.83505">
        <ele>2219.15</ele>
        <time>2013-08-08T11:28:22Z</time>
      </trkpt>
      <trkpt lat="44.59581" lon="6.83502">
        <ele>2215.73</ele>
        <time>2013-08-08T11:29:15Z</time>
      </trkpt>
      <trkpt lat="44.59563" lon="6.83496">
        <ele>2199.67</ele>
        <time>2013-08-08T11:35:24Z</time>
      </trkpt>
      <trkpt lat="44.59547" lon="6.83483">
        <ele>2192.88</ele>
        <time>2013-08-08T11:35:47Z</time>
      </trkpt>
      <trkpt lat="44.59532" lon="6.83468">
        <ele>2184.82</ele>
        <time>2013-08-08T11:36:40Z</time>
      </trkpt>
      <trkpt lat="44.59519" lon="6.8345">
        <ele>2174.12</ele>
        <time>2013-08-08T11:37:12Z</time>
      </trkpt>
      <trkpt lat="44.59508" lon="6.83429">
        <ele>2169.07</ele>
        <time>2013-08-08T11:37:38Z</time>
      </trkpt>
      <trkpt lat="44.59489" lon="6.83427">
        <ele>2156.24</ele>
        <time>2013-08-08T11:38:27Z</time>
      </trkpt>
      <trkpt lat="44.59487" lon="6.83453">
        <ele>2154.57</ele>
        <time>2013-08-08T11:38:54Z</time>
      </trkpt>
      <trkpt lat="44.59481" lon="6.83477">
        <ele>2144.7</ele>
        <time>2013-08-08T11:39:22Z</time>
      </trkpt>
      <trkpt lat="44.59484" lon="6.83502">
        <ele>2141.47</ele>
        <time>2013-08-08T11:39:47Z</time>
      </trkpt>
      <trkpt lat="44.59483" lon="6.83527">
        <ele>2131.5</ele>
        <time>2013-08-08T11:40:08Z</time>
      </trkpt>
      <trkpt lat="44.59482" lon="6.83553">
        <ele>2122.23</ele>
        <time>2013-08-08T11:40:34Z</time>
      </trkpt>
      <trkpt lat="44.5948" lon="6.83579">
        <ele>2114.83</ele>
        <time>2013-08-08T11:40:57Z</time>
      </trkpt>
      <trkpt lat="44.59477" lon="6.83604">
        <ele>2111.11</ele>
        <time>2013-08-08T11:41:26Z</time>
      </trkpt>
      <trkpt lat="44.59479" lon="6.8363">
        <ele>2103.37</ele>
        <time>2013-08-08T11:41:52Z</time>
      </trkpt>
      <trkpt lat="44.59476" lon="6.83656">
        <ele>2100.59</ele>
        <time>2013-08-08T11:42:12Z</time>
      </trkpt>
      <trkpt lat="44.59478" lon="6.83682">
        <ele>2091.54</ele>
        <time>2013-08-08T11:42:53Z</time>
      </trkpt>
      <trkpt lat="44.59476" lon="6.83707">
        <ele>2083.45</ele>
        <time>2013-08-08T11:43:27Z</time>
      </trkpt>
      <trkpt lat="44.59479" lon="6.83732">
        <ele>2074.2</ele>
        <time>2013-08-08T11:43:44Z</time>
      </trkpt>
      <trkpt lat="44.59482" lon="6.83758">
        <ele>2077.66</ele>
        <time>2013-08-08T11:44:00Z</time>
      </trkpt>
      <trkpt lat="44.59485" lon="6.83785">
        <ele>2076.75</ele>
        <time>2013-08-08T11:44:16Z</time>
      </trkpt>
      <trkpt lat="44.59491" lon="6.83809">
        <ele>2071.82</ele>
        <time>2013-08-08T11:44:35Z</time>
      </trkpt>
      <trkpt lat="44.59496" lon="6.83834">
        <ele>2066.39</ele>
        <time>2013-08-08T11:45:00Z</time>
      </trkpt>
      <trkpt lat="44.595" lon="6.8386">
        <ele>2060.92</ele>
        <time>2013-08-08T11:45:26Z</time>
      </trkpt>
      <trkpt lat="44.59503" lon="6.83885">
        <ele>2054.29</ele>
        <time>2013-08-08T11:46:04Z</time>
      </trkpt>
      <trkpt lat="44.59484" lon="6.83884">
        <ele>2042.19</ele>
        <time>2013-08-08T11:46:35Z</time>
      </trkpt>
      <trkpt lat="44.59487" lon="6.8391">
        <ele>2023.69</ele>
        <time>2013-08-08T11:47:13Z</time>
      </trkpt>
      <trkpt lat="44.59478" lon="6.83933">
        <ele>2027.29</ele>
        <time>2013-08-08T11:47:48Z</time>
      </trkpt>
      <trkpt lat="44.5946" lon="6.83937">
        <ele>2017.04</ele>
        <time>2013-08-08T11:48:16Z</time>
      </trkpt>
      <trkpt lat="44.59442" lon="6.83937">
        <ele>2008.33</ele>
        <time>2013-08-08T11:48:49Z</time>
      </trkpt>
      <trkpt lat="44.59428" lon="6.83953">
        <ele>2001.5</ele>
        <time>2013-08-08T11:49:18Z</time>
      </trkpt>
      <trkpt lat="44.59422" lon="6.83978">
        <ele>1994.99</ele>
        <time>2013-08-08T11:49:45Z</time>
      </trkpt>
      <trkpt lat="44.5942" lon="6.84003">
        <ele>1986.7</ele>
        <time>2013-08-08T11:50:05Z</time>
      </trkpt>
      <trkpt lat="44.59419" lon="6.84029">
        <ele>1979.07</ele>
        <time>2013-08-08T11:50:28Z</time>
      </trkpt>
      <trkpt lat="44.5941" lon="6.84051">
        <ele>1975.53</ele>
        <time>2013-08-08T11:50:49Z</time>
      </trkpt>
      <trkpt lat="44.59401" lon="6.84073">
        <ele>1969.05</ele>
        <time>2013-08-08T11:51:12Z</time>
      </trkpt>
      <trkpt lat="44.59382" lon="6.84073">
        <ele>1961.89</ele>
        <time>2013-08-08T11:51:38Z</time>
      </trkpt>
      <trkpt lat="44.59367" lon="6.84088">
        <ele>1957.16</ele>
        <time>2013-08-08T11:52:02Z</time>
      </trkpt>
      <trkpt lat="44.59349" lon="6.84088">
        <ele>1948.67</ele>
        <time>2013-08-08T11:52:29Z</time>
      </trkpt>
      <trkpt lat="44.59336" lon="6.84106">
        <ele>1940.84</ele>
        <time>2013-08-08T11:52:57Z</time>
      </trkpt>
      <trkpt lat="44.59319" lon="6.84118">
        <ele>1936.96</ele>
        <time>2013-08-08T11:53:18Z</time>
      </trkpt>
      <trkpt lat="44.59304" lon="6.84132">
        <ele>1932.82</ele>
        <time>2013-08-08T11:53:37Z</time>
      </trkpt>
      <trkpt lat="44.593" lon="6.84157">
        <ele>1927.43</ele>
        <time>2013-08-08T11:53:57Z</time>
      </trkpt>
      <trkpt lat="44.59293" lon="6.84182">
        <ele>1922.2</ele>
        <time>2013-08-08T11:54:22Z</time>
      </trkpt>
      <trkpt lat="44.59276" lon="6.84192">
        <ele>1919.1</ele>
        <time>2013-08-08T11:54:45Z</time>
      </trkpt>
      <trkpt lat="44.5927" lon="6.84216">
        <ele>1912.25</ele>
        <time>2013-08-08T11:55:19Z</time>
      </trkpt>
      <trkpt lat="44.59284" lon="6.84233">
        <ele>1907.58</ele>
        <time>2013-08-08T11:56:10Z</time>
      </trkpt>
      <trkpt lat="44.59277" lon="6.84256">
        <ele>1906.16</ele>
        <time>2013-08-08T11:56:51Z</time>
      </trkpt>
    </trkseg>
  </trk>
</gpx>